Data for 04/13/2010

Time Sea-Level Adjusted Pressure Absolute Pressure Temperature Relative Humidity Dew Point Precipitation   
(mb) (inHg) (mb) (inHg) (C) (F) (%) (C) (F) (mm) (in)
00:01 1011 29.85 840 24.81 1.5 34.7 84 -0.9 30.3 1.924 0.076
00:02 1011 29.85 840 24.81 1.5 34.7 84 -0.9 30.4 1.901 0.075
00:03 1011 29.85 840 24.81 1.5 34.7 84 -0.9 30.3 1.901 0.075
00:04 1011 29.85 840 24.81 1.5 34.7 84 -0.9 30.4 1.885 0.074
00:05 1011 29.85 840 24.81 1.5 34.7 84 -0.9 30.4 1.885 0.074
00:06 1011 29.85 840 24.81 1.5 34.7 84 -0.9 30.4 1.89 0.074
00:07 1011 29.85 840 24.81 1.5 34.7 84 -0.9 30.4 1.902 0.075
00:08 1011 29.85 840 24.81 1.5 34.7 85 -0.8 30.6 1.935 0.076
00:09 1011 29.85 840 24.81 1.5 34.7 85 -0.8 30.5 1.896 0.075
00:10 1011 29.85 840 24.81 1.5 34.7 85 -0.8 30.5 1.918 0.076
00:11 1011 29.85 840 24.81 1.5 34.7 85 -0.8 30.6 1.924 0.076
00:12 1011 29.85 840 24.81 1.5 34.7 85 -0.8 30.6 1.935 0.076
00:13 1011 29.85 840 24.81 1.5 34.7 85 -0.8 30.6 1.93 0.076
00:14 1011 29.85 840 24.81 1.5 34.7 85 -0.8 30.6 1.941 0.076
00:15 1011 29.85 840 24.81 1.6 34.8 84 -0.8 30.6 1.947 0.077
00:16 1011 29.85 840 24.81 1.6 34.8 85 -0.7 30.7 1.986 0.078
00:17 1011 29.85 840 24.81 1.5 34.8 85 -0.8 30.6 1.981 0.078
00:18 1011 29.85 840 24.81 1.6 34.8 85 -0.7 30.7 1.964 0.077
00:19 1011 29.85 840 24.81 1.6 34.8 84 -0.8 30.5 1.969 0.078
00:20 1011 29.85 840 24.81 1.6 34.9 84 -0.9 30.5 2.009 0.079
00:21 1011 29.85 840 24.81 1.6 35 83 -0.9 30.4 2.049 0.081
00:22 1011 29.85 840 24.81 1.7 35 83 -0.9 30.3 2.088 0.082
00:23 1011 29.85 840 24.81 1.7 35 82 -1 30.2 2.117 0.083
00:24 1011 29.85 840 24.81 1.7 35.1 82 -1 30.1 2.179 0.086
00:25 1011 29.85 840 24.81 1.7 35.1 82 -1.1 30.1 2.162 0.085
00:26 1011 29.85 840 24.81 1.8 35.2 82 -1 30.2 2.224 0.088
00:27 1011 29.85 840 24.81 1.8 35.2 82 -1 30.2 2.173 0.086
00:28 1011 29.85 840 24.81 1.8 35.2 81 -1.1 30.1 2.19 0.086
00:29 1011 29.85 840 24.81 1.8 35.2 81 -1.2 29.9 2.213 0.087
00:30 1011 29.85 840 24.81 1.8 35.3 80 -1.2 29.9 2.241 0.088
00:31 1011 29.85 840 24.81 1.8 35.3 81 -1.2 29.9 2.213 0.087
00:32 1011 29.85 840 24.81 1.9 35.3 80 -1.2 29.9 2.269 0.089
00:33 1011 29.85 840 24.81 1.9 35.4 80 -1.2 29.8 2.303 0.091
00:34 1011 29.85 840 24.81 1.9 35.4 80 -1.2 29.8 2.303 0.091
00:35 1011 29.85 840 24.81 1.9 35.4 80 -1.2 29.8 2.298 0.09
00:36 1011 29.85 840 24.81 1.9 35.4 80 -1.2 29.8 2.303 0.091
00:37 1011 29.85 840 24.81 1.9 35.4 80 -1.2 29.8 2.36 0.093
00:38 1011 29.85 840 24.81 2 35.5 79 -1.3 29.7 2.377 0.094
00:39 1011 29.85 840 24.81 1.9 35.5 79 -1.3 29.7 2.354 0.093
00:40 1011 29.85 840 24.81 1.9 35.5 79 -1.3 29.7 2.315 0.091
00:41 1011 29.85 840 24.81 1.9 35.5 79 -1.3 29.7 2.371 0.093
00:42 1011 29.85 840 24.81 1.9 35.5 79 -1.3 29.7 2.36 0.093
00:43 1011 29.85 840 24.81 1.9 35.5 79 -1.3 29.7 2.371 0.093
00:44 1011 29.85 840 24.81 1.9 35.5 80 -1.2 29.8 2.366 0.093
00:45 1011 29.85 840 24.81 1.9 35.5 80 -1.2 29.8 2.326 0.092
00:46 1011 29.85 840 24.81 1.9 35.5 79 -1.4 29.6 2.309 0.091
00:47 1011 29.85 840 24.81 1.9 35.4 80 -1.3 29.7 2.332 0.092
00:48 1011 29.85 840 24.81 1.9 35.4 79 -1.3 29.6 2.292 0.09
00:49 1011 29.85 840 24.81 1.9 35.4 79 -1.3 29.7 2.303 0.091
00:50 1010 29.83 840 24.81 1.9 35.4 79 -1.4 29.5 2.269 0.089
00:51 1010 29.83 840 24.81 1.9 35.4 79 -1.4 29.5 2.315 0.091
00:52 1010 29.83 840 24.81 1.9 35.4 79 -1.3 29.6 2.32 0.091
00:53 1010 29.83 840 24.81 1.9 35.4 79 -1.3 29.6 2.343 0.092
00:54 1010 29.83 840 24.81 1.9 35.4 79 -1.3 29.6 2.315 0.091
00:55 1010 29.83 840 24.81 1.9 35.4 79 -1.3 29.6 2.252 0.089
00:56 1010 29.83 840 24.81 1.8 35.3 80 -1.3 29.6 2.264 0.089
00:57 1010 29.83 839 24.78 1.8 35.3 79 -1.4 29.5 2.258 0.089
00:58 1010 29.83 839 24.78 1.8 35.3 80 -1.3 29.6 2.241 0.088
00:59 1010 29.83 839 24.78 1.8 35.3 80 -1.3 29.6 2.247 0.088
01:00 1010 29.83 839 24.78 1.8 35.2 80 -1.4 29.6 2.235 0.088
01:01 1010 29.83 839 24.78 1.8 35.2 80 -1.4 29.5 2.196 0.086
01:02 1010 29.83 839 24.78 1.8 35.2 79 -1.4 29.5 2.23 0.088
01:03 1010 29.83 839 24.78 1.8 35.2 80 -1.3 29.6 2.213 0.087
01:04 1010 29.83 839 24.78 1.8 35.2 80 -1.4 29.5 2.218 0.087
01:05 1010 29.83 839 24.78 1.8 35.2 79 -1.4 29.5 2.224 0.088
01:06 1010 29.83 839 24.78 1.8 35.3 79 -1.4 29.5 2.252 0.089
01:07 1010 29.83 839 24.78 1.8 35.3 79 -1.4 29.6 2.252 0.089
01:08 1010 29.83 839 24.78 1.8 35.3 79 -1.4 29.5 2.258 0.089
01:09 1010 29.83 839 24.78 1.8 35.2 79 -1.4 29.5 2.23 0.088
01:10 1010 29.83 839 24.78 1.8 35.3 80 -1.3 29.6 2.241 0.088
01:11 1010 29.83 839 24.78 1.8 35.2 80 -1.3 29.7 2.201 0.087
01:12 1010 29.83 839 24.78 1.8 35.2 80 -1.3 29.6 2.196 0.086
01:13 1010 29.83 839 24.78 1.8 35.2 80 -1.3 29.7 2.179 0.086
01:14 1010 29.83 839 24.78 1.8 35.2 80 -1.3 29.6 2.224 0.088
01:15 1010 29.83 839 24.78 1.8 35.3 79 -1.3 29.6 2.252 0.089
01:16 1010 29.83 839 24.78 1.9 35.4 79 -1.3 29.6 2.321 0.091
01:17 1010 29.83 839 24.78 1.9 35.4 79 -1.3 29.7 2.327 0.092
01:18 1010 29.83 839 24.78 1.9 35.4 79 -1.3 29.7 2.322 0.091
01:19 1010 29.83 839 24.78 1.9 35.5 79 -1.3 29.7 2.288 0.09
01:20 1010 29.83 839 24.78 1.9 35.5 79 -1.4 29.5 2.338 0.092
01:21 1010 29.83 839 24.78 2 35.6 79 -1.3 29.6 2.367 0.093
01:22 1010 29.83 839 24.78 2 35.6 79 -1.2 29.8 2.316 0.091
01:23 1010 29.83 839 24.78 1.9 35.5 79 -1.3 29.7 2.333 0.092
01:24 1010 29.83 839 24.78 1.9 35.5 79 -1.3 29.7 2.333 0.092
01:25 1010 29.83 839 24.78 1.9 35.4 79 -1.3 29.6 2.339 0.092
01:26 1010 29.83 839 24.78 1.9 35.4 80 -1.3 29.7 2.294 0.09
01:27 1010 29.83 839 24.78 1.9 35.4 80 -1.2 29.8 2.3 0.091
01:28 1010 29.83 839 24.78 1.9 35.3 80 -1.3 29.7 2.3 0.091
01:29 1010 29.83 839 24.78 1.9 35.4 80 -1.3 29.7 2.265 0.089
01:30 1010 29.83 839 24.78 1.9 35.4 80 -1.3 29.7 2.265 0.089
01:31 1010 29.83 839 24.78 1.9 35.3 80 -1.3 29.6 2.277 0.09
01:32 1010 29.83 839 24.78 1.9 35.3 79 -1.3 29.6 2.293 0.09
01:33 1010 29.83 839 24.78 1.8 35.3 80 -1.3 29.6 2.288 0.09
01:34 1010 29.83 839 24.78 1.8 35.3 79 -1.4 29.5 2.276 0.09
01:35 1010 29.83 839 24.78 1.9 35.3 80 -1.3 29.7 2.265 0.089
01:36 1010 29.83 839 24.78 1.9 35.3 80 -1.3 29.7 2.287 0.09
01:37 1010 29.83 839 24.78 1.9 35.3 80 -1.3 29.7 2.231 0.088
01:38 1010 29.83 839 24.78 1.8 35.2 80 -1.4 29.5 2.202 0.087
01:39 1010 29.83 839 24.78 1.8 35.3 80 -1.3 29.7 2.231 0.088
01:40 1010 29.83 839 24.78 1.8 35.2 80 -1.3 29.7 2.198 0.087
01:41 1010 29.83 839 24.78 1.8 35.2 80 -1.4 29.6 2.221 0.087
01:42 1010 29.83 839 24.78 1.8 35.3 80 -1.3 29.6 2.26 0.089
01:43 1010 29.83 839 24.78 1.8 35.3 79 -1.4 29.5 2.237 0.088
01:44 1010 29.83 839 24.78 1.9 35.3 79 -1.3 29.6 2.243 0.088
01:45 1010 29.83 839 24.78 1.8 35.3 80 -1.3 29.6 2.271 0.089
01:46 1010 29.83 839 24.78 1.8 35.3 80 -1.3 29.6 2.221 0.087
01:47 1010 29.83 839 24.78 1.8 35.2 80 -1.3 29.7 2.21 0.087
01:48 1010 29.83 839 24.78 1.8 35.2 80 -1.3 29.6 2.193 0.086
01:49 1010 29.83 839 24.78 1.8 35.2 80 -1.4 29.5 2.199 0.087
01:50 1010 29.83 839 24.78 1.8 35.2 80 -1.3 29.6 2.194 0.086
01:51 1010 29.83 839 24.78 1.8 35.2 79 -1.4 29.5 2.177 0.086
01:52 1010 29.83 839 24.78 1.8 35.2 79 -1.4 29.5 2.211 0.087
01:53 1010 29.83 839 24.78 1.8 35.3 79 -1.4 29.5 2.223 0.088
01:54 1010 29.83 839 24.78 1.8 35.2 80 -1.3 29.6 2.217 0.087
01:55 1010 29.83 839 24.78 1.8 35.2 80 -1.4 29.5 2.218 0.087
01:56 1010 29.83 839 24.78 1.8 35.2 80 -1.3 29.6 2.206 0.087
01:57 1010 29.83 839 24.78 1.8 35.2 80 -1.3 29.7 2.201 0.087
01:58 1010 29.83 839 24.78 1.8 35.2 80 -1.4 29.5 2.213 0.087
01:59 1010 29.83 839 24.78 1.8 35.3 80 -1.3 29.6 2.252 0.089
02:00 1010 29.83 839 24.78 1.8 35.2 79 -1.4 29.5 2.207 0.087
02:01 1010 29.83 839 24.78 1.8 35.3 80 -1.3 29.6 2.19 0.086
02:02 1010 29.83 839 24.78 1.8 35.2 80 -1.4 29.5 2.19 0.086
02:03 1010 29.83 839 24.78 1.8 35.2 80 -1.4 29.5 2.19 0.086
02:04 1010 29.83 839 24.78 1.8 35.2 80 -1.3 29.6 2.196 0.086
02:05 1010 29.83 839 24.78 1.8 35.2 79 -1.4 29.5 2.174 0.086
02:06 1010 29.83 839 24.78 1.8 35.2 80 -1.3 29.6 2.191 0.086
02:07 1010 29.83 839 24.78 1.8 35.2 80 -1.3 29.6 2.157 0.085
02:08 1010 29.83 839 24.78 1.7 35.1 80 -1.4 29.5 2.162 0.085
02:09 1009 29.8 839 24.78 1.8 35.2 80 -1.3 29.7 2.179 0.086
02:10 1009 29.8 839 24.78 1.8 35.2 80 -1.3 29.7 2.151 0.085
02:11 1009 29.8 839 24.78 1.7 35.1 80 -1.4 29.5 2.168 0.085
02:12 1009 29.8 839 24.78 1.7 35.1 80 -1.4 29.4 2.151 0.085
02:13 1009 29.8 839 24.78 1.7 35.1 79 -1.5 29.3 2.174 0.086
02:14 1009 29.8 839 24.78 1.8 35.2 80 -1.4 29.6 2.134 0.084
02:15 1009 29.8 839 24.78 1.7 35.1 80 -1.3 29.6 2.129 0.084
02:16 1009 29.8 839 24.78 1.7 35.1 80 -1.3 29.6 2.118 0.083
02:17 1009 29.8 839 24.78 1.7 35.1 80 -1.3 29.6 2.089 0.082
02:18 1009 29.8 839 24.78 1.7 35 81 -1.3 29.7 2.078 0.082
02:19 1009 29.8 839 24.78 1.6 34.9 80 -1.4 29.5 2.067 0.081
02:20 1009 29.8 839 24.78 1.7 35 80 -1.4 29.5 2.101 0.083
02:21 1009 29.8 839 24.78 1.6 34.9 81 -1.4 29.6 2.061 0.081
02:22 1009 29.8 839 24.78 1.6 34.9 80 -1.4 29.4 2.055 0.081
02:23 1009 29.8 839 24.78 1.7 35 80 -1.4 29.5 2.078 0.082
02:24 1009 29.8 839 24.78 1.6 35 80 -1.4 29.5 2.067 0.081
02:25 1009 29.8 839 24.78 1.6 35 81 -1.3 29.6 2.061 0.081
02:26 1009 29.8 839 24.78 1.6 34.9 81 -1.4 29.6 2.056 0.081
02:27 1009 29.8 839 24.78 1.6 34.9 81 -1.4 29.5 2.022 0.08
02:28 1009 29.8 839 24.78 1.6 34.9 81 -1.3 29.6 2.022 0.08
02:29 1009 29.8 839 24.78 1.6 34.9 81 -1.3 29.6 2.067 0.081
02:30 1009 29.8 839 24.78 1.6 34.9 81 -1.3 29.6 2.022 0.08
02:31 1009 29.8 839 24.78 1.6 34.8 81 -1.3 29.6 2.01 0.079
02:32 1009 29.8 839 24.78 1.6 34.9 81 -1.3 29.6 2.01 0.079
02:33 1009 29.8 839 24.78 1.6 34.9 81 -1.3 29.7 2.044 0.08
02:34 1009 29.8 839 24.78 1.6 34.9 81 -1.2 29.8 1.999 0.079
02:35 1009 29.8 839 24.78 1.6 34.9 82 -1.2 29.8 2.016 0.079
02:36 1010 29.83 839 24.78 1.6 34.8 82 -1.2 29.8 1.999 0.079
02:37 1010 29.83 839 24.78 1.6 34.9 82 -1.2 29.9 2.01 0.079
02:38 1010 29.83 839 24.78 1.6 34.8 81 -1.3 29.7 1.993 0.078
02:39 1010 29.83 839 24.78 1.6 34.9 81 -1.3 29.7 1.993 0.078
02:40 1010 29.83 839 24.78 1.6 34.9 81 -1.3 29.7 2.022 0.08
02:41 1010 29.83 839 24.78 1.6 34.9 81 -1.2 29.8 1.999 0.079
02:42 1010 29.83 839 24.78 1.6 34.9 82 -1.2 29.8 1.988 0.078
02:43 1010 29.83 839 24.78 1.6 34.9 81 -1.3 29.7 2.027 0.08
02:44 1010 29.83 839 24.78 1.6 34.9 81 -1.2 29.8 2.027 0.08
02:45 1010 29.83 839 24.78 1.6 34.9 81 -1.2 29.8 2.027 0.08
02:46 1010 29.83 839 24.78 1.6 34.9 82 -1.2 29.8 2.027 0.08
02:47 1010 29.83 839 24.78 1.6 34.9 81 -1.3 29.7 2.022 0.08
02:48 1010 29.83 839 24.78 1.6 34.9 81 -1.2 29.8 2.01 0.079
02:49 1010 29.83 839 24.78 1.6 34.9 81 -1.2 29.8 2.056 0.081
02:50 1010 29.83 839 24.78 1.6 34.9 82 -1.2 29.9 2.01 0.079
02:51 1010 29.83 839 24.78 1.6 34.9 81 -1.2 29.8 2.022 0.08
02:52 1009 29.8 839 24.78 1.6 34.9 82 -1.2 29.8 2.027 0.08
02:53 1009 29.8 838 24.75 1.6 34.8 81 -1.3 29.7 2.022 0.08
02:54 1009 29.8 838 24.75 1.6 34.8 82 -1.3 29.7 1.965 0.077
02:55 1009 29.8 838 24.75 1.5 34.7 82 -1.3 29.7 1.875 0.074
02:56 1009 29.8 838 24.75 1.4 34.5 83 -1.2 29.8 1.778 0.07
02:57 1009 29.8 838 24.75 1.3 34.4 83 -1.3 29.7 1.733 0.068
02:58 1009 29.8 838 24.75 1.3 34.3 83 -1.3 29.7 1.66 0.065
02:59 1009 29.8 838 24.75 1.2 34.2 83 -1.3 29.6 1.637 0.064
03:00 1009 29.8 838 24.75 1.2 34.1 83 -1.3 29.6 1.654 0.065
03:01 1009 29.8 838 24.75 1.2 34.2 83 -1.4 29.6 1.603 0.063
03:02 1009 29.8 838 24.75 1.2 34.1 84 -1.3 29.7 1.62 0.064
03:03 1009 29.8 838 24.75 1.2 34.2 84 -1.2 29.8 1.597 0.063
03:04 1009 29.8 838 24.75 1.2 34.2 84 -1.2 29.8 1.597 0.063
03:05 1009 29.8 838 24.75 1.1 34 84 -1.3 29.6 1.592 0.063
03:06 1009 29.8 838 24.75 1.2 34.1 84 -1.3 29.7 1.541 0.061
03:07 1009 29.8 838 24.75 1.1 34 84 -1.3 29.7 1.597 0.063
03:08 1008 29.77 838 24.75 1.2 34.1 84 -1.3 29.7 1.569 0.062
03:09 1008 29.77 838 24.75 1.1 34.1 84 -1.3 29.6 1.575 0.062
03:10 1008 29.77 838 24.75 1.2 34.1 84 -1.3 29.7 1.575 0.062
03:11 1008 29.77 838 24.75 1.2 34.1 84 -1.3 29.7 1.569 0.062
03:12 1008 29.77 838 24.75 1.1 34.1 84 -1.3 29.7 1.558 0.061
03:13 1008 29.77 838 24.75 1.1 34.1 84 -1.3 29.6 1.586 0.062
03:14 1008 29.77 838 24.75 1.1 34.1 84 -1.3 29.7 1.58 0.062
03:15 1008 29.77 838 24.75 1.2 34.1 84 -1.3 29.7 1.58 0.062
03:16 1008 29.77 838 24.75 1.2 34.1 84 -1.3 29.7 1.626 0.064
03:17 1008 29.77 838 24.75 1.2 34.1 84 -1.3 29.7 1.586 0.062
03:18 1008 29.77 838 24.75 1.2 34.1 84 -1.3 29.6 1.609 0.063
03:19 1009 29.8 838 24.75 1.2 34.1 84 -1.3 29.7 1.575 0.062
03:20 1009 29.8 838 24.75 1.1 34 84 -1.3 29.6 1.535 0.06
03:21 1009 29.8 838 24.75 1 33.7 85 -1.3 29.6 1.428 0.056
03:22 1009 29.8 838 24.75 0.9 33.6 85 -1.3 29.6 1.314 0.052
03:23 1009 29.8 838 24.75 0.8 33.5 86 -1.3 29.7 1.212 0.048
03:24 1009 29.8 838 24.75 0.7 33.3 86 -1.3 29.6 1.178 0.046
03:25 1009 29.8 838 24.75 0.7 33.2 87 -1.3 29.6 1.099 0.043
03:26 1009 29.8 838 24.75 0.6 33.1 87 -1.3 29.6 1.071 0.042
03:27 1009 29.8 838 24.75 0.6 33 87 -1.3 29.6 .997 0.039
03:28 1009 29.8 838 24.75 0.6 33 87 -1.3 29.6 .997 0.039
03:29 1009 29.8 838 24.75 0.5 32.9 88 -1.3 29.6 .924 0.036
03:30 1009 29.8 838 24.75 0.5 32.9 88 -1.3 29.6 .98 0.039
03:31 1009 29.8 838 24.75 0.5 32.9 88 -1.3 29.7 .878 0.035
03:32 1009 29.8 838 24.75 0.4 32.8 88 -1.3 29.6 .924 0.036
03:33 1008 29.77 838 24.75 0.4 32.8 88 -1.3 29.7 .873 0.034
03:34 1008 29.77 838 24.75 0.4 32.7 88 -1.3 29.6 .816 0.032
03:35 1008 29.77 838 24.75 0.4 32.7 88 -1.3 29.6 .795 0.031
03:36 1008 29.77 837 24.72 0.3 32.6 89 -1.4 29.6 .784 0.031
03:37 1008 29.77 837 24.72 0.3 32.5 89 -1.3 29.6 .738 0.029
03:38 1008 29.77 837 24.72 0.3 32.5 89 -1.3 29.7 .71 0.028
03:39 1008 29.77 837 24.72 0.2 32.4 90 -1.3 29.6 .664 0.026
03:40 1008 29.77 837 24.72 0.2 32.4 90 -1.3 29.7 .654 0.026
03:41 1008 29.77 837 24.72 0.2 32.3 90 -1.3 29.7 .632 0.025
03:42 1008 29.77 837 24.72 0.2 32.3 90 -1.3 29.7 .603 0.024
03:43 1008 29.77 837 24.72 0.1 32.2 90 -1.3 29.6 .57 0.022
03:44 1008 29.77 837 24.72 0.1 32.2 90 -1.3 29.6 .542 0.021
03:45 1008 29.77 837 24.72 0.1 32.1 90 -1.4 29.6 .536 0.021
03:46 1008 29.77 837 24.72 0.1 32.2 91 -1.3 29.7 .531 0.021
03:47 1008 29.77 837 24.72 0.1 32.2 91 -1.3 29.7 .503 0.02
03:48 1008 29.77 837 24.72 0.1 32.2 91 -1.2 29.8 .52 0.02
03:49 1008 29.77 837 24.72 0.1 32.2 91 -1.2 29.8 .509 0.02
03:50 1008 29.77 837 24.72 0.1 32.2 91 -1.2 29.8 .487 0.019
03:51 1008 29.77 837 24.72 0.1 32.1 91 -1.3 29.7 .498 0.02
03:52 1008 29.77 837 24.72 0.1 32.1 91 -1.2 29.8 .521 0.021
03:53 1008 29.77 837 24.72 0.1 32.2 91 -1.2 29.8 .538 0.021
03:54 1008 29.77 837 24.72 0.1 32.1 91 -1.3 29.7 .51 0.02
03:55 1008 29.77 837 24.72 0.1 32.1 91 -1.3 29.7 .499 0.02
03:56 1008 29.77 838 24.75 0.1 32.2 91 -1.2 29.8 .505 0.02
03:57 1008 29.77 838 24.75 0.1 32.2 91 -1.2 29.9 .516 0.02
03:58 1008 29.77 838 24.75 0.1 32.1 91 -1.2 29.8 .488 0.019
03:59 1008 29.77 838 24.75 0.1 32.1 91 -1.3 29.7 .499 0.02
04:00 1008 29.77 838 24.75 0.1 32.2 91 -1.3 29.7 .499 0.02
04:01 1008 29.77 838 24.75 0.1 32.2 91 -1.2 29.8 .494 0.019
04:02 1008 29.77 838 24.75 0.1 32.2 91 -1.2 29.8 .522 0.021
04:03 1008 29.77 838 24.75 0.1 32.2 91 -1.2 29.8 .505 0.02
04:04 1008 29.77 838 24.75 0.1 32.2 91 -1.3 29.7 .534 0.021
04:05 1008 29.77 838 24.75 0.1 32.2 91 -1.2 29.8 .545 0.021
04:06 1008 29.77 838 24.75 0.1 32.2 91 -1.2 29.8 .551 0.022
04:07 1008 29.77 838 24.75 0.1 32.2 91 -1.2 29.8 .551 0.022
04:08 1008 29.77 838 24.75 0.1 32.2 91 -1.2 29.9 .562 0.022
04:09 1008 29.77 838 24.75 0.1 32.2 91 -1.2 29.8 .59 0.023
04:10 1008 29.77 838 24.75 0.1 32.2 91 -1.2 29.8 .562 0.022
04:11 1008 29.77 837 24.72 0.1 32.2 91 -1.2 29.8 .557 0.022
04:12 1008 29.77 838 24.75 0.1 32.2 91 -1.2 29.8 .545 0.021
04:13 1008 29.77 838 24.75 0.1 32.2 91 -1.2 29.9 .568 0.022
04:14 1008 29.77 838 24.75 0.1 32.2 91 -1.2 29.8 .534 0.021
04:15 1008 29.77 838 24.75 0.1 32.2 91 -1.2 29.8 .551 0.022
04:16 1008 29.77 838 24.75 0.1 32.2 91 -1.2 29.8 .568 0.022
04:17 1008 29.77 838 24.75 0.1 32.2 91 -1.2 29.8 .545 0.021
04:18 1008 29.77 838 24.75 0.1 32.2 91 -1.2 29.8 .557 0.022
04:19 1008 29.77 837 24.72 0.1 32.2 91 -1.2 29.8 .557 0.022
04:20 1008 29.77 837 24.72 0.1 32.2 91 -1.2 29.8 .551 0.022
04:21 1008 29.77 837 24.72 0.1 32.3 91 -1.2 29.9 .562 0.022
04:22 1008 29.77 837 24.72 0.1 32.2 91 -1.1 29.9 .563 0.022
04:23 1008 29.77 837 24.72 0.1 32.3 91 -1.2 29.9 .591 0.023
04:24 1008 29.77 837 24.72 0.1 32.3 91 -1.2 29.9 .58 0.023
04:25 1008 29.77 837 24.72 0.1 32.2 91 -1.2 29.9 .574 0.023
04:26 1008 29.77 838 24.75 0.2 32.3 91 -1.2 29.9 .568 0.022
04:27 1008 29.77 837 24.72 0.1 32.3 91 -1.2 29.9 .568 0.022
04:28 1008 29.77 837 24.72 0.1 32.3 91 -1.2 29.9 .563 0.022
04:29 1008 29.77 837 24.72 0.2 32.3 91 -1.2 29.9 .619 0.024
04:30 1008 29.77 837 24.72 0.1 32.3 91 -1.2 29.9 .568 0.022
04:31 1008 29.77 837 24.72 0.1 32.2 91 -1.2 29.9 .608 0.024
04:32 1008 29.77 837 24.72 0.1 32.3 91 -1.2 29.9 .563 0.022
04:33 1008 29.77 837 24.72 0.1 32.2 91 -1.2 29.8 .591 0.023
04:34 1008 29.77 837 24.72 0.1 32.2 91 -1.2 29.9 .551 0.022
04:35 1008 29.77 837 24.72 0.1 32.2 91 -1.2 29.9 .568 0.022
04:36 1008 29.77 837 24.72 0.1 32.2 91 -1.2 29.9 .563 0.022
04:37 1008 29.77 837 24.72 0.1 32.3 91 -1.2 29.9 .546 0.021
04:38 1008 29.77 837 24.72 0.1 32.2 91 -1.2 29.9 .534 0.021
04:39 1008 29.77 837 24.72 0.1 32.2 91 -1.2 29.9 .557 0.022
04:40 1008 29.77 837 24.72 0.1 32.2 91 -1.1 29.9 .546 0.021
04:41 1008 29.77 837 24.72 0.1 32.2 91 -1.2 29.9 .563 0.022
04:42 1008 29.77 837 24.72 0.1 32.2 91 -1.2 29.9 .557 0.022
04:43 1008 29.77 837 24.72 0.1 32.2 91 -1.1 30 .523 0.021
04:44 1008 29.77 837 24.72 0.1 32.2 91 -1.1 29.9 .54 0.021
04:45 1008 29.77 837 24.72 0.1 32.2 91 -1.1 30 .529 0.021
04:46 1008 29.77 837 24.72 0.1 32.2 91 -1.1 29.9 .517 0.02
04:47 1008 29.77 837 24.72 0.1 32.2 92 -1.1 30 .512 0.02
04:48 1008 29.77 837 24.72 0.1 32.2 92 -1.1 30 .512 0.02
04:49 1008 29.77 837 24.72 0.1 32.2 92 -1.1 30 .489 0.019
04:50 1008 29.77 837 24.72 0.1 32.2 92 -1.1 30 .534 0.021
04:51 1008 29.77 837 24.72 0.1 32.1 92 -1.1 30 .495 0.019
04:52 1008 29.77 837 24.72 0.1 32.1 92 -1.2 29.9 .483 0.019
04:53 1008 29.77 837 24.72 0.1 32.1 91 -1.2 29.9 .472 0.019
04:54 1008 29.77 837 24.72 0.1 32.2 92 -1.1 30 .517 0.02
04:55 1008 29.77 837 24.72 0.1 32.1 92 -1.1 29.9 .472 0.019
04:56 1008 29.77 837 24.72 0.1 32.1 92 -1.1 29.9 .506 0.02
04:57 1008 29.77 837 24.72 0.1 32.1 92 -1.1 30 .506 0.02
04:58 1008 29.77 837 24.72 0.1 32.1 92 -1.1 30 .489 0.019
04:59 1008 29.77 837 24.72 0.1 32.1 92 -1.1 30 .466 0.018
05:00 1008 29.77 837 24.72 0.1 32.1 92 -1.1 30 .472 0.019
05:01 1008 29.77 837 24.72 0.1 32.1 92 -1.1 30 .478 0.019
05:02 1008 29.77 837 24.72 0 32 92 -1.1 30 .472 0.019
05:03 1008 29.77 837 24.72 0 32 92 -1.1 29.9 .466 0.018
05:04 1008 29.77 837 24.72 0 32 92 -1.1 30 .466 0.018
05:05 1008 29.77 837 24.72 0 32.1 92 -1.1 30 .478 0.019
05:06 1008 29.77 837 24.72 0 32 92 -1.1 30 .472 0.019
05:07 1008 29.77 837 24.72 0 32 92 -1.1 30.1 .449 0.018
05:08 1008 29.77 837 24.72 0 32 92 -1.1 30 .449 0.018
05:09 1008 29.77 837 24.72 0 32 92 -1.1 30.1 .432 0.017
05:10 1008 29.77 837 24.72 -0 31.9 92 -1.1 30 .466 0.018
05:11 1008 29.77 837 24.72 -0 32 93 -1.1 30 .461 0.018
05:12 1008 29.77 837 24.72 0 32 93 -1.1 30.1 .427 0.017
05:13 1008 29.77 837 24.72 -0 31.9 93 -1.1 30 .438 0.017
05:14 1008 29.77 837 24.72 -0.1 31.9 93 -1.1 30 .421 0.017
05:15 1008 29.77 837 24.72 -0.1 31.9 93 -1.1 30.1 .399 0.016
05:16 1008 29.77 837 24.72 -0.1 31.9 93 -1 30.1 .387 0.015
05:17 1008 29.77 837 24.72 -0.1 31.9 93 -1.1 30.1 .399 0.016
05:18 1008 29.77 837 24.72 -0.1 31.9 93 -1.1 30.1 .416 0.016
05:19 1008 29.77 837 24.72 -0.1 31.9 93 -1 30.1 .399 0.016
05:20 1008 29.77 837 24.72 -0.1 31.9 93 -1 30.1 .365 0.014
05:21 1008 29.77 837 24.72 -0.1 31.8 93 -1 30.1 .382 0.015
05:22 1008 29.77 837 24.72 -0.1 31.8 93 -1 30.1 .393 0.015
05:23 1008 29.77 837 24.72 -0.1 31.9 93 -1 30.1 .365 0.014
05:24 1008 29.77 837 24.72 -0.1 31.8 93 -1 30.1 .359 0.014
05:25 1008 29.77 837 24.72 -0.1 31.8 93 -1 30.1 .353 0.014
05:26 1008 29.77 837 24.72 -0.1 31.8 94 -1 30.2 .348 0.014
05:27 1008 29.77 837 24.72 -0.1 31.8 94 -1 30.2 .342 0.013
05:28 1008 29.77 837 24.72 -0.1 31.8 94 -1 30.1 .319 0.013
05:29 1008 29.77 837 24.72 -0.1 31.8 94 -1 30.2 .37 0.015
05:30 1008 29.77 837 24.72 -0.2 31.7 94 -1 30.2 .331 0.013
05:31 1008 29.77 837 24.72 -0.1 31.7 94 -1 30.2 .325 0.013
05:32 1008 29.77 837 24.72 -0.2 31.7 94 -1 30.2 .314 0.012
05:33 1008 29.77 837 24.72 -0.2 31.7 94 -1 30.2 .319 0.013
05:34 1008 29.77 837 24.72 -0.1 31.8 94 -1 30.3 .302 0.012
05:35 1008 29.77 837 24.72 -0.2 31.7 94 -1 30.3 .331 0.013
05:36 1008 29.77 837 24.72 -0.2 31.7 94 -1 30.3 .314 0.012
05:37 1008 29.77 837 24.72 -0.2 31.7 94 -1 30.3 .336 0.013
05:38 1008 29.77 837 24.72 -0.1 31.8 94 -0.9 30.3 .314 0.012
05:39 1008 29.77 837 24.72 -0.2 31.7 94 -0.9 30.3 .308 0.012
05:40 1008 29.77 837 24.72 -0.1 31.8 95 -0.9 30.4 .291 0.011
05:41 1008 29.77 837 24.72 -0.2 31.7 95 -0.9 30.3 .291 0.011
05:42 1008 29.77 837 24.72 -0.2 31.7 95 -0.9 30.4 .285 0.011
05:43 1008 29.77 837 24.72 -0.2 31.7 95 -0.9 30.3 .297 0.012
05:44 1008 29.77 837 24.72 -0.2 31.7 95 -0.9 30.3 .28 0.011
05:45 1008 29.77 837 24.72 -0.2 31.6 95 -1 30.3 .297 0.012
05:46 1008 29.77 837 24.72 -0.2 31.7 95 -0.9 30.3 .251 0.01
05:47 1007 29.74 837 24.72 -0.2 31.7 95 -0.9 30.3 .24 0.009
05:48 1007 29.74 837 24.72 -0.2 31.7 95 -0.9 30.3 .24 0.009
05:49 1007 29.74 837 24.72 -0.2 31.6 95 -0.9 30.3 .206 0.008
05:50 1007 29.74 836 24.69 -0.2 31.6 95 -0.9 30.3 .223 0.009
05:51 1007 29.74 836 24.69 -0.2 31.6 95 -0.9 30.3 .212 0.008
05:52 1007 29.74 836 24.69 -0.3 31.5 95 -0.9 30.4 .183 0.007
05:53 1007 29.74 836 24.69 -0.3 31.4 96 -1 30.3 .172 0.007
05:54 1007 29.74 837 24.72 -0.3 31.5 96 -0.9 30.4 .166 0.007
05:55 1007 29.74 837 24.72 -0.3 31.4 96 -0.9 30.4 .132 0.005
05:56 1007 29.74 837 24.72 -0.3 31.4 96 -0.9 30.4 .11 0.004
05:57 1007 29.74 837 24.72 -0.3 31.4 96 -0.9 30.4 .121 0.005
05:58 1008 29.77 837 24.72 -0.4 31.4 96 -0.9 30.4 .098 0.004
05:59 1008 29.77 837 24.72 -0.3 31.4 96 -0.9 30.4 .11 0.004
06:00 1008 29.77 837 24.72 -0.3 31.4 97 -0.8 30.5 .098 0.004
06:01 1008 29.77 837 24.72 -0.4 31.3 97 -0.9 30.5 .11 0.004
06:02 1008 29.77 837 24.72 -0.4 31.3 97 -0.8 30.5 .082 0.003
06:03 1008 29.77 837 24.72 -0.4 31.4 97 -0.8 30.5 .104 0.004
06:04 1008 29.77 837 24.72 -0.4 31.3 97 -0.8 30.5 .104 0.004
06:05 1008 29.77 837 24.72 -0.3 31.4 97 -0.8 30.6 .121 0.005
06:06 1008 29.77 837 24.72 -0.4 31.3 97 -0.8 30.6 .087 0.003
06:07 1008 29.77 837 24.72 -0.4 31.3 97 -0.8 30.5 .065 0.003
06:08 1008 29.77 837 24.72 -0.4 31.3 97 -0.8 30.6 .048 0.002
06:09 1008 29.77 837 24.72 -0.4 31.3 97 -0.8 30.6 .07 0.003
06:10 1008 29.77 837 24.72 -0.4 31.2 97 -0.8 30.5 .042 0.002
06:11 1008 29.77 837 24.72 -0.4 31.2 97 -0.8 30.6 .019 0.001
06:12 1008 29.77 837 24.72 -0.4 31.2 98 -0.8 30.6 .025 0.001
06:13 1008 29.77 837 24.72 -0.5 31.2 97 -0.8 30.5 .019 0.001
06:14 1008 29.77 837 24.72 -0.5 31.2 98 -0.8 30.6 .014 0.001
06:15 1008 29.77 837 24.72 -0.5 31.2 98 -0.8 30.6 .019 0.001
06:16 1008 29.77 837 24.72 -0.4 31.2 98 -0.8 30.6 .008 0
06:17 1008 29.77 837 24.72 -0.5 31.2 98 -0.8 30.6 .014 0.001
06:18 1007 29.74 837 24.72 -0.5 31.1 98 -0.8 30.6 -.009 -0
06:19 1007 29.74 837 24.72 -0.5 31.1 98 -0.8 30.6 .036 0.001
06:20 1007 29.74 836 24.69 -0.5 31.2 98 -0.8 30.6 .002 0
06:21 1007 29.74 836 24.69 -0.5 31.1 98 -0.8 30.6 -.003 -0
06:22 1007 29.74 836 24.69 -0.5 31.2 98 -0.8 30.6 -.043 -0.002
06:23 1007 29.74 836 24.69 -0.5 31.1 98 -0.8 30.6 -.003 -0
06:24 1007 29.74 836 24.69 -0.5 31.1 98 -0.8 30.6 -.037 -0.001
06:25 1007 29.74 836 24.69 -0.5 31.1 98 -0.8 30.6 -.054 -0.002
06:26 1007 29.74 836 24.69 -0.5 31.1 98 -0.8 30.5 -.083 -0.003
06:27 1007 29.74 836 24.69 -0.6 31 98 -0.8 30.5 -.066 -0.003
06:28 1007 29.74 836 24.69 -0.6 31 98 -0.8 30.5 -.083 -0.003
06:29 1007 29.74 836 24.69 -0.6 31 98 -0.8 30.5 -.06 -0.002
06:30 1007 29.74 836 24.69 -0.6 31 98 -0.8 30.5 -.1 -0.004
06:31 1007 29.74 836 24.69 -0.6 31 98 -0.8 30.5 -.105 -0.004
06:32 1007 29.74 836 24.69 -0.6 30.9 98 -0.8 30.5 -.117 -0.005
06:33 1007 29.74 836 24.69 -0.6 31 98 -0.8 30.6 -.117 -0.005
06:34 1007 29.74 836 24.69 -0.6 31 98 -0.8 30.6 -.117 -0.005
06:35 1007 29.74 836 24.69 -0.5 31.1 99 -0.7 30.7 -.077 -0.003
06:36 1007 29.74 836 24.69 -0.5 31.1 99 -0.7 30.7 -.06 -0.002
06:37 1007 29.74 836 24.69 -0.5 31.1 99 -0.7 30.8 -.009 -0
06:38 1007 29.74 836 24.69 -0.5 31.2 99 -0.6 30.8 -.043 -0.002
06:39 1007 29.74 836 24.69 -0.4 31.2 99 -0.6 30.9 -.003 -0
06:40 1007 29.74 836 24.69 -0.4 31.3 99 -0.6 30.9 .014 0.001
06:41 1007 29.74 836 24.69 -0.4 31.2 99 -0.6 30.9 .014 0.001
06:42 1007 29.74 836 24.69 -0.4 31.2 99 -0.6 30.9 -.032 -0.001
06:43 1007 29.74 836 24.69 -0.4 31.3 99 -0.6 30.9 .025 0.001
06:44 1007 29.74 836 24.69 -0.4 31.2 99 -0.6 30.9 -.009 -0
06:45 1007 29.74 836 24.69 -0.5 31.2 99 -0.6 30.8 -.077 -0.003
06:46 1007 29.74 836 24.69 -0.5 31.1 99 -0.7 30.8 -.037 -0.001
06:47 1007 29.74 836 24.69 -0.5 31.1 99 -0.7 30.8 -.054 -0.002
06:48 1007 29.74 836 24.69 -0.5 31.1 99 -0.7 30.8 -.049 -0.002
06:49 1007 29.74 836 24.69 -0.5 31.1 99 -0.7 30.8 -.088 -0.003
06:50 1007 29.74 836 24.69 -0.5 31 99 -0.7 30.7 -.1 -0.004
06:51 1007 29.74 836 24.69 -0.5 31 99 -0.7 30.7 -.122 -0.005
06:52 1007 29.74 836 24.69 -0.5 31 99 -0.7 30.7 -.128 -0.005
06:53 1007 29.74 836 24.69 -0.6 31 99 -0.7 30.7 -.117 -0.005
06:54 1007 29.74 836 24.69 -0.6 31 99 -0.7 30.7 -.128 -0.005
06:55 1007 29.74 836 24.69 -0.6 31 99 -0.7 30.7 -.179 -0.007
06:56 1007 29.74 836 24.69 -0.6 31 99 -0.7 30.7 -.162 -0.006
06:57 1007 29.74 836 24.69 -0.6 30.9 99 -0.7 30.7 -.168 -0.007
06:58 1007 29.74 836 24.69 -0.6 30.9 99 -0.7 30.7 -.185 -0.007
06:59 1007 29.74 836 24.69 -0.6 30.8 99 -0.8 30.6 -.247 -0.01
07:00 1007 29.74 836 24.69 -0.6 30.8 99 -0.8 30.6 -.247 -0.01
07:01 1007 29.74 836 24.69 -0.7 30.8 99 -0.8 30.5 -.224 -0.009
07:02 1007 29.74 836 24.69 -0.7 30.8 99 -0.8 30.6 -.281 -0.011
07:03 1007 29.74 836 24.69 -0.7 30.7 99 -0.8 30.5 -.253 -0.01
07:04 1007 29.74 836 24.69 -0.7 30.7 99 -0.9 30.4 -.275 -0.011
07:05 1007 29.74 836 24.69 -0.7 30.7 99 -0.9 30.4 -.309 -0.012
07:06 1007 29.74 836 24.69 -0.7 30.7 99 -0.8 30.5 -.315 -0.012
07:07 1007 29.74 836 24.69 -0.7 30.7 99 -0.8 30.5 -.354 -0.014
07:08 1007 29.74 836 24.69 -0.7 30.7 99 -0.8 30.5 -.315 -0.012
07:09 1007 29.74 836 24.69 -0.8 30.6 99 -0.9 30.4 -.332 -0.013
07:10 1007 29.74 836 24.69 -0.8 30.6 99 -0.9 30.4 -.332 -0.013
07:11 1007 29.74 836 24.69 -0.7 30.7 99 -0.8 30.5 -.343 -0.014
07:12 1007 29.74 836 24.69 -0.8 30.6 99 -0.9 30.4 -.349 -0.014
07:13 1007 29.74 836 24.69 -0.8 30.6 99 -0.8 30.5 -.326 -0.013
07:14 1007 29.74 836 24.69 -0.8 30.6 99 -0.9 30.4 -.343 -0.014
07:15 1007 29.74 836 24.69 -0.8 30.6 99 -0.9 30.5 -.349 -0.014
07:16 1007 29.74 836 24.69 -0.8 30.5 99 -0.9 30.4 -.343 -0.014
07:17 1007 29.74 836 24.69 -0.8 30.6 99 -0.9 30.4 -.366 -0.014
07:18 1007 29.74 836 24.69 -0.8 30.6 99 -0.9 30.4 -.366 -0.014
07:19 1007 29.74 836 24.69 -0.8 30.6 99 -0.9 30.4 -.377 -0.015
07:20 1007 29.74 836 24.69 -0.8 30.6 99 -0.9 30.4 -.371 -0.015
07:21 1007 29.74 836 24.69 -0.8 30.6 99 -0.9 30.4 -.366 -0.014
07:22 1007 29.74 836 24.69 -0.8 30.6 99 -0.9 30.4 -.388 -0.015
07:23 1007 29.74 836 24.69 -0.8 30.5 99 -0.9 30.4 -.411 -0.016
07:24 1007 29.74 836 24.69 -0.8 30.5 99 -0.9 30.4 -.377 -0.015
07:25 1007 29.74 836 24.69 -0.8 30.5 99 -0.9 30.4 -.417 -0.016
07:26 1007 29.74 836 24.69 -0.8 30.5 99 -0.9 30.4 -.434 -0.017
07:27 1007 29.74 836 24.69 -0.8 30.5 99 -0.9 30.4 -.388 -0.015
07:28 1007 29.74 836 24.69 -0.8 30.5 99 -0.9 30.3 -.439 -0.017
07:29 1007 29.74 836 24.69 -0.8 30.5 99 -0.9 30.3 -.422 -0.017
07:30 1007 29.74 836 24.69 -0.8 30.5 99 -0.9 30.4 -.394 -0.016
07:31 1007 29.74 836 24.69 -0.8 30.5 100 -0.9 30.4 -.445 -0.018
07:32 1007 29.74 836 24.69 -0.8 30.5 100 -0.9 30.4 -.434 -0.017
07:33 1006 29.71 836 24.69 -0.8 30.5 99 -0.9 30.3 -.4 -0.016
07:34 1006 29.71 836 24.69 -0.8 30.5 100 -0.9 30.4 -.411 -0.016
07:35 1006 29.71 836 24.69 -0.9 30.5 100 -0.9 30.3 -.422 -0.017
07:36 1006 29.71 835 24.66 -0.8 30.5 99 -0.9 30.3 -.428 -0.017
07:37 1006 29.71 835 24.66 -0.9 30.4 100 -0.9 30.3 -.456 -0.018
07:38 1006 29.71 835 24.66 -0.9 30.4 100 -1 30.3 -.428 -0.017
07:39 1006 29.71 835 24.66 -0.9 30.4 100 -0.9 30.3 -.468 -0.018
07:40 1006 29.71 835 24.66 -0.9 30.4 100 -0.9 30.3 -.462 -0.018
07:41 1006 29.71 835 24.66 -0.9 30.4 100 -1 30.2 -.462 -0.018
07:42 1006 29.71 835 24.66 -0.9 30.4 100 -1 30.3 -.473 -0.019
07:43 1006 29.71 835 24.66 -0.9 30.4 100 -1 30.3 -.49 -0.019
07:44 1006 29.71 835 24.66 -0.9 30.4 100 -0.9 30.3 -.485 -0.019
07:45 1006 29.71 835 24.66 -0.9 30.4 100 -0.9 30.3 -.507 -0.02
07:46 1006 29.71 836 24.69 -0.9 30.4 100 -0.9 30.3 -.49 -0.019
07:47 1006 29.71 836 24.69 -0.9 30.4 100 -1 30.3 -.519 -0.02
07:48 1006 29.71 836 24.69 -0.9 30.4 100 -1 30.2 -.479 -0.019
07:49 1006 29.71 836 24.69 -0.9 30.4 100 -1 30.3 -.524 -0.021
07:50 1006 29.71 836 24.69 -0.9 30.3 100 -1 30.2 -.485 -0.019
07:51 1006 29.71 836 24.69 -0.9 30.4 100 -0.9 30.3 -.49 -0.019
07:52 1006 29.71 836 24.69 -0.9 30.4 100 -1 30.3 -.502 -0.02
07:53 1006 29.71 836 24.69 -0.9 30.4 100 -0.9 30.3 -.496 -0.02
07:54 1006 29.71 836 24.69 -0.9 30.4 100 -1 30.3 -.473 -0.019
07:55 1006 29.71 836 24.69 -0.9 30.4 100 -1 30.3 -.496 -0.02
07:56 1006 29.71 836 24.69 -0.9 30.4 100 -0.9 30.3 -.479 -0.019
07:57 1006 29.71 836 24.69 -0.9 30.4 100 -0.9 30.3 -.485 -0.019
07:58 1006 29.71 836 24.69 -0.9 30.4 100 -0.9 30.3 -.456 -0.018
07:59 1006 29.71 836 24.69 -0.9 30.4 100 -0.9 30.3 -.449 -0.018
08:00 1006 29.71 836 24.69 -0.9 30.4 100 -0.9 30.3 -.466 -0.018
08:01 1007 29.74 836 24.69 -0.9 30.4 100 -0.9 30.3 -.455 -0.018
08:02 1007 29.74 836 24.69 -0.8 30.5 100 -0.9 30.4 -.478 -0.019
08:03 1007 29.74 836 24.69 -0.9 30.5 100 -0.9 30.4 -.484 -0.019
08:04 1007 29.74 836 24.69 -0.9 30.5 100 -0.9 30.4 -.45 -0.018
08:05 1007 29.74 836 24.69 -0.9 30.4 100 -0.9 30.4 -.455 -0.018
08:06 1007 29.74 836 24.69 -0.8 30.5 100 -0.9 30.4 -.427 -0.017
08:07 1007 29.74 836 24.69 -0.8 30.5 100 -0.9 30.4 -.439 -0.017
08:08 1007 29.74 836 24.69 -0.8 30.5 100 -0.9 30.4 -.41 -0.016
08:09 1007 29.74 836 24.69 -0.8 30.5 100 -0.9 30.4 -.433 -0.017
08:10 1007 29.74 836 24.69 -0.8 30.5 100 -0.9 30.4 -.404 -0.016
08:11 1007 29.74 836 24.69 -0.8 30.6 100 -0.9 30.5 -.437 -0.017
08:12 1007 29.74 836 24.69 -0.8 30.5 100 -0.9 30.5 -.437 -0.017
08:13 1007 29.74 836 24.69 -0.8 30.6 100 -0.8 30.5 -.404 -0.016
08:14 1007 29.74 836 24.69 -0.8 30.5 100 -0.9 30.5 -.398 -0.016
08:15 1006 29.71 836 24.69 -0.8 30.6 100 -0.8 30.5 -.421 -0.017
08:16 1006 29.71 836 24.69 -0.8 30.6 100 -0.8 30.5 -.375 -0.015
08:17 1007 29.74 836 24.69 -0.8 30.6 100 -0.8 30.5 -.374 -0.015
08:18 1007 29.74 836 24.69 -0.8 30.6 100 -0.8 30.5 -.374 -0.015
08:19 1007 29.74 836 24.69 -0.8 30.6 100 -0.8 30.5 -.38 -0.015
08:20 1007 29.74 836 24.69 -0.8 30.6 100 -0.8 30.5 -.419 -0.016
08:21 1007 29.74 836 24.69 -0.8 30.6 100 -0.8 30.5 -.43 -0.017
08:22 1007 29.74 836 24.69 -0.8 30.6 100 -0.8 30.5 -.408 -0.016
08:23 1007 29.74 836 24.69 -0.8 30.6 100 -0.8 30.5 -.397 -0.016
08:24 1007 29.74 836 24.69 -0.8 30.6 100 -0.8 30.5 -.403 -0.016
08:25 1007 29.74 836 24.69 -0.8 30.6 100 -0.8 30.5 -.396 -0.016
08:26 1007 29.74 836 24.69 -0.8 30.6 100 -0.8 30.6 -.396 -0.016
08:27 1007 29.74 836 24.69 -0.8 30.6 100 -0.8 30.6 -.374 -0.015
08:28 1007 29.74 836 24.69 -0.8 30.6 100 -0.8 30.5 -.424 -0.017
08:29 1007 29.74 836 24.69 -0.8 30.6 100 -0.8 30.6 -.356 -0.014
08:30 1007 29.74 836 24.69 -0.8 30.6 100 -0.8 30.5 -.379 -0.015
08:31 1007 29.74 836 24.69 -0.8 30.6 100 -0.8 30.5 -.384 -0.015
08:32 1007 29.74 836 24.69 -0.8 30.6 100 -0.8 30.6 -.367 -0.014
08:33 1007 29.74 836 24.69 -0.8 30.6 100 -0.8 30.5 -.384 -0.015
08:34 1007 29.74 836 24.69 -0.8 30.5 100 -0.9 30.4 -.429 -0.017
08:35 1007 29.74 836 24.69 -0.8 30.5 100 -0.9 30.5 -.44 -0.017
08:36 1007 29.74 836 24.69 -0.8 30.5 100 -0.9 30.4 -.44 -0.017
08:37 1007 29.74 836 24.69 -0.9 30.5 100 -0.9 30.4 -.451 -0.018
08:38 1007 29.74 836 24.69 -0.8 30.5 100 -0.9 30.4 -.451 -0.018
08:39 1006 29.71 836 24.69 -0.9 30.5 100 -0.9 30.4 -.462 -0.018
08:40 1006 29.71 836 24.69 -0.9 30.4 100 -0.9 30.3 -.473 -0.019
08:41 1006 29.71 836 24.69 -0.9 30.4 100 -0.9 30.4 -.479 -0.019
08:42 1006 29.71 836 24.69 -0.9 30.4 100 -0.9 30.4 -.479 -0.019
08:43 1006 29.71 836 24.69 -0.9 30.4 100 -0.9 30.4 -.53 -0.021
08:44 1006 29.71 836 24.69 -0.9 30.4 100 -0.9 30.3 -.496 -0.02
08:45 1006 29.71 836 24.69 -0.9 30.4 100 -0.9 30.3 -.53 -0.021
08:46 1006 29.71 836 24.69 -0.9 30.4 100 -1 30.3 -.569 -0.022
08:47 1006 29.71 836 24.69 -0.9 30.4 100 -0.9 30.3 -.586 -0.023
08:48 1006 29.71 836 24.69 -0.9 30.3 100 -1 30.3 -.552 -0.022
08:49 1006 29.71 836 24.69 -0.9 30.3 100 -1 30.2 -.507 -0.02
08:50 1006 29.71 836 24.69 -0.9 30.4 100 -1 30.3 -.518 -0.02
08:51 1006 29.71 836 24.69 -0.9 30.4 100 -0.9 30.3 -.529 -0.021
08:52 1006 29.71 836 24.69 -0.9 30.4 100 -0.9 30.3 -.467 -0.018
08:53 1006 29.71 836 24.69 -0.9 30.3 100 -1 30.3 -.495 -0.019
08:54 1006 29.71 836 24.69 -0.9 30.4 100 -0.9 30.4 -.478 -0.019
08:55 1006 29.71 836 24.69 -0.9 30.4 100 -0.9 30.4 -.484 -0.019
08:56 1007 29.74 836 24.69 -0.9 30.4 100 -0.9 30.4 -.473 -0.019
08:57 1007 29.74 836 24.69 -0.9 30.5 100 -0.9 30.4 -.41 -0.016
08:58 1006 29.71 836 24.69 -0.8 30.5 100 -0.9 30.5 -.405 -0.016
08:59 1006 29.71 836 24.69 -0.8 30.5 100 -0.9 30.5 -.416 -0.016
09:00 1006 29.71 836 24.69 -0.8 30.6 100 -0.8 30.5 -.399 -0.016
09:01 1006 29.71 836 24.69 -0.8 30.5 100 -0.8 30.5 -.382 -0.015
09:02 1006 29.71 836 24.69 -0.8 30.6 100 -0.8 30.6 -.337 -0.013
09:03 1006 29.71 836 24.69 -0.7 30.7 100 -0.8 30.6 -.303 -0.012
09:04 1006 29.71 836 24.69 -0.7 30.8 100 -0.7 30.7 -.337 -0.013
09:05 1006 29.71 836 24.69 -0.7 30.7 100 -0.7 30.7 -.286 -0.011
09:06 1006 29.71 836 24.69 -0.7 30.7 100 -0.7 30.7 -.297 -0.012
09:07 1006 29.71 836 24.69 -0.7 30.8 100 -0.7 30.7 -.274 -0.011
09:08 1006 29.71 836 24.69 -0.7 30.8 100 -0.7 30.8 -.331 -0.013
09:09 1006 29.71 836 24.69 -0.7 30.7 100 -0.7 30.7 -.342 -0.013
09:10 1006 29.71 836 24.69 -0.7 30.7 100 -0.8 30.6 -.382 -0.015
09:11 1006 29.71 836 24.69 -0.8 30.6 100 -0.8 30.6 -.393 -0.015
09:12 1007 29.74 836 24.69 -0.8 30.6 100 -0.8 30.6 -.399 -0.016
09:13 1007 29.74 836 24.69 -0.8 30.6 100 -0.8 30.5 -.387 -0.015
09:14 1007 29.74 836 24.69 -0.8 30.6 100 -0.8 30.5 -.393 -0.015
09:15 1007 29.74 836 24.69 -0.8 30.5 100 -0.8 30.5 -.399 -0.016
09:16 1007 29.74 836 24.69 -0.8 30.5 100 -0.9 30.5 -.438 -0.017
09:17 1007 29.74 836 24.69 -0.9 30.5 100 -0.9 30.4 -.404 -0.016
09:18 1007 29.74 836 24.69 -0.9 30.4 100 -0.9 30.3 -.455 -0.018
09:19 1007 29.74 836 24.69 -0.9 30.4 100 -0.9 30.3 -.506 -0.02
09:20 1007 29.74 836 24.69 -0.9 30.3 100 -1 30.3 -.546 -0.021
09:21 1007 29.74 836 24.69 -1 30.3 100 -1 30.2 -.574 -0.023
09:22 1007 29.74 836 24.69 -0.9 30.3 100 -1 30.2 -.62 -0.024
09:23 1007 29.74 836 24.69 -1 30.2 100 -1.1 30.1 -.636 -0.025
09:24 1007 29.74 836 24.69 -1 30.1 100 -1.1 30 -.699 -0.028
09:25 1007 29.74 836 24.69 -1.1 30.1 100 -1.1 30 -.704 -0.028
09:26 1007 29.74 836 24.69 -1.1 30 100 -1.1 29.9 -.716 -0.028
09:27 1007 29.74 836 24.69 -1.1 30 100 -1.2 29.9 -.767 -0.03
09:28 1007 29.74 836 24.69 -1.1 29.9 100 -1.2 29.8 -.761 -0.03
09:29 1007 29.74 836 24.69 -1.2 29.9 100 -1.2 29.8 -.801 -0.032
09:30 1007 29.74 836 24.69 -1.2 29.9 100 -1.2 29.8 -.806 -0.032
09:31 1007 29.74 836 24.69 -1.2 29.9 100 -1.2 29.8 -.761 -0.03
09:32 1006 29.71 836 24.69 -1.2 29.8 100 -1.3 29.7 -.806 -0.032
09:33 1006 29.71 836 24.69 -1.2 29.9 100 -1.2 29.8 -.835 -0.033
09:34 1006 29.71 836 24.69 -1.2 29.9 100 -1.2 29.8 -.789 -0.031
09:35 1006 29.71 836 24.69 -1.2 29.8 100 -1.3 29.7 -.846 -0.033
09:36 1006 29.71 836 24.69 -1.2 29.8 100 -1.3 29.7 -.852 -0.034
09:37 1006 29.71 836 24.69 -1.2 29.8 100 -1.3 29.7 -.835 -0.033
09:38 1006 29.71 836 24.69 -1.2 29.8 100 -1.3 29.7 -.852 -0.034
09:39 1006 29.71 836 24.69 -1.2 29.8 100 -1.3 29.7 -.84 -0.033
09:40 1006 29.71 836 24.69 -1.3 29.7 100 -1.3 29.6 -.886 -0.035
09:41 1006 29.71 836 24.69 -1.2 29.8 100 -1.3 29.7 -.857 -0.034
09:42 1006 29.71 836 24.69 -1.3 29.7 100 -1.3 29.6 -.835 -0.033
09:43 1006 29.71 836 24.69 -1.3 29.7 100 -1.3 29.6 -.852 -0.034
09:44 1006 29.71 836 24.69 -1.3 29.7 100 -1.4 29.6 -.897 -0.035
09:45 1006 29.71 836 24.69 -1.3 29.6 100 -1.4 29.5 -.897 -0.035
09:46 1006 29.71 836 24.69 -1.3 29.6 100 -1.4 29.5 -.925 -0.036
09:47 1006 29.71 836 24.69 -1.3 29.6 100 -1.4 29.5 -.925 -0.036
09:48 1006 29.71 836 24.69 -1.3 29.6 100 -1.4 29.5 -.954 -0.038
09:49 1006 29.71 836 24.69 -1.3 29.6 100 -1.4 29.5 -.954 -0.038
09:50 1007 29.74 836 24.69 -1.4 29.5 100 -1.4 29.4 -1.01 -0.04
09:51 1007 29.74 836 24.69 -1.3 29.6 100 -1.4 29.5 -.993 -0.039
09:52 1007 29.74 836 24.69 -1.4 29.5 100 -1.4 29.4 -.988 -0.039
09:53 1007 29.74 836 24.69 -1.4 29.5 100 -1.5 29.4 -1.05 -0.041
09:54 1007 29.74 836 24.69 -1.4 29.5 100 -1.5 29.3 -1.038 -0.041
09:55 1007 29.74 836 24.69 -1.5 29.4 100 -1.5 29.3 -1.067 -0.042
09:56 1007 29.74 836 24.69 -1.5 29.3 100 -1.5 29.2 -1.084 -0.043
09:57 1007 29.74 836 24.69 -1.5 29.4 100 -1.5 29.3 -1.106 -0.044
09:58 1007 29.74 836 24.69 -1.4 29.4 100 -1.5 29.3 -1.05 -0.041
09:59 1007 29.74 836 24.69 -1.5 29.3 100 -1.5 29.2 -1.106 -0.044
10:00 1007 29.74 836 24.69 -1.5 29.3 100 -1.6 29.2 -1.112 -0.044
10:01 1007 29.74 836 24.69 -1.5 29.3 100 -1.5 29.2 -1.152 -0.045
10:02 1007 29.74 836 24.69 -1.5 29.3 100 -1.5 29.2 -1.14 -0.045
10:03 1007 29.74 836 24.69 -1.5 29.3 100 -1.5 29.2 -1.123 -0.044
10:04 1007 29.74 836 24.69 -1.5 29.3 100 -1.6 29.2 -1.084 -0.043
10:05 1007 29.74 836 24.69 -1.5 29.3 100 -1.5 29.3 -1.118 -0.044
10:06 1007 29.74 836 24.69 -1.5 29.3 100 -1.6 29.2 -1.089 -0.043
10:07 1007 29.74 836 24.69 -1.5 29.3 100 -1.6 29.2 -1.118 -0.044
10:08 1007 29.74 836 24.69 -1.5 29.3 100 -1.6 29.2 -1.089 -0.043
10:09 1007 29.74 836 24.69 -1.5 29.3 100 -1.5 29.3 -1.118 -0.044
10:10 1007 29.74 836 24.69 -1.5 29.3 100 -1.6 29.2 -1.118 -0.044
10:11 1007 29.74 836 24.69 -1.5 29.3 100 -1.5 29.3 -1.044 -0.041
10:12 1007 29.74 836 24.69 -1.5 29.2 100 -1.6 29.2 -1.095 -0.043
10:13 1007 29.74 836 24.69 -1.5 29.2 100 -1.6 29.2 -1.118 -0.044
10:14 1007 29.74 836 24.69 -1.5 29.3 100 -1.6 29.2 -1.089 -0.043
10:15 1007 29.74 836 24.69 -1.5 29.2 100 -1.6 29.2 -1.146 -0.045
10:16 1007 29.74 836 24.69 -1.5 29.3 100 -1.6 29.2 -1.118 -0.044
10:17 1007 29.74 836 24.69 -1.5 29.3 100 -1.6 29.2 -1.101 -0.043
10:18 1007 29.74 836 24.69 -1.5 29.3 100 -1.5 29.2 -1.106 -0.044
10:19 1007 29.74 836 24.69 -1.5 29.3 100 -1.5 29.2 -1.078 -0.042
10:20 1007 29.74 836 24.69 -1.5 29.3 100 -1.6 29.2 -1.112 -0.044
10:21 1007 29.74 836 24.69 -1.5 29.3 100 -1.5 29.2 -1.089 -0.043
10:22 1007 29.74 836 24.69 -1.5 29.3 100 -1.5 29.2 -1.078 -0.042
10:23 1007 29.74 836 24.69 -1.5 29.3 100 -1.5 29.2 -1.084 -0.043
10:24 1007 29.74 836 24.69 -1.5 29.3 100 -1.5 29.2 -1.072 -0.042
10:25 1007 29.74 836 24.69 -1.5 29.3 100 -1.5 29.3 -1.055 -0.042
10:26 1007 29.74 836 24.69 -1.5 29.3 100 -1.6 29.2 -1.044 -0.041
10:27 1007 29.74 836 24.69 -1.5 29.3 100 -1.5 29.2 -1.067 -0.042
10:28 1007 29.74 836 24.69 -1.5 29.3 100 -1.5 29.2 -1.044 -0.041
10:29 1007 29.74 836 24.69 -1.5 29.3 100 -1.5 29.2 -1.067 -0.042
10:30 1007 29.74 836 24.69 -1.5 29.3 100 -1.5 29.2 -1.044 -0.041
10:31 1007 29.74 836 24.69 -1.5 29.3 100 -1.5 29.3 -1.049 -0.041
10:32 1007 29.74 836 24.69 -1.5 29.3 100 -1.5 29.2 -1.082 -0.043
10:33 1007 29.74 836 24.69 -1.5 29.4 100 -1.5 29.3 -1.037 -0.041
10:34 1007 29.74 836 24.69 -1.5 29.3 100 -1.5 29.3 -1.02 -0.04
10:35 1007 29.74 837 24.72 -1.5 29.3 100 -1.5 29.3 -1.049 -0.041
10:36 1007 29.74 836 24.69 -1.5 29.3 100 -1.5 29.2 -1.06 -0.042
10:37 1007 29.74 836 24.69 -1.5 29.3 100 -1.5 29.2 -1.1 -0.043
10:38 1007 29.74 837 24.72 -1.5 29.3 100 -1.6 29.2 -1.083 -0.043
10:39 1007 29.74 837 24.72 -1.5 29.3 100 -1.5 29.2 -1.06 -0.042
10:40 1007 29.74 837 24.72 -1.5 29.3 100 -1.6 29.2 -1.072 -0.042
10:41 1007 29.74 837 24.72 -1.5 29.3 100 -1.5 29.2 -1.066 -0.042
10:42 1007 29.74 837 24.72 -1.5 29.3 100 -1.5 29.2 -1.072 -0.042
10:43 1007 29.74 837 24.72 -1.5 29.3 100 -1.5 29.2 -1.088 -0.043
10:44 1007 29.74 837 24.72 -1.5 29.3 100 -1.5 29.2 -1.076 -0.042
10:45 1007 29.74 837 24.72 -1.5 29.4 100 -1.5 29.3 -1.048 -0.041
10:46 1007 29.74 837 24.72 -1.5 29.4 100 -1.5 29.3 -1.054 -0.041
10:47 1007 29.74 837 24.72 -1.4 29.4 100 -1.4 29.4 -1.043 -0.041
10:48 1007 29.74 837 24.72 -1.5 29.4 100 -1.5 29.3 -1.048 -0.041
10:49 1007 29.74 837 24.72 -1.5 29.4 100 -1.5 29.3 -1.054 -0.041
10:50 1007 29.74 837 24.72 -1.5 29.4 100 -1.5 29.3 -1.043 -0.041
10:51 1007 29.74 837 24.72 -1.5 29.4 100 -1.5 29.3 -1.037 -0.041
10:52 1007 29.74 837 24.72 -1.5 29.3 100 -1.5 29.3 -1.077 -0.042
10:53 1007 29.74 837 24.72 -1.5 29.3 100 -1.5 29.3 -1.054 -0.041
10:54 1007 29.74 837 24.72 -1.5 29.4 100 -1.5 29.3 -1.072 -0.042
10:55 1007 29.74 837 24.72 -1.4 29.4 100 -1.5 29.4 -1.049 -0.041
10:56 1008 29.77 837 24.72 -1.4 29.4 100 -1.5 29.4 -1.043 -0.041
10:57 1008 29.77 837 24.72 -1.4 29.5 100 -1.4 29.4 -.964 -0.038
10:58 1008 29.77 837 24.72 -1.4 29.5 100 -1.4 29.4 -1.004 -0.04
10:59 1008 29.77 837 24.72 -1.4 29.6 100 -1.4 29.5 -.947 -0.037
11:00 1008 29.77 837 24.72 -1.3 29.6 100 -1.4 29.5 -.908 -0.036
11:01 1008 29.77 837 24.72 -1.4 29.6 100 -1.4 29.5 -.925 -0.036
11:02 1008 29.77 837 24.72 -1.3 29.6 100 -1.4 29.6 -.874 -0.034
11:03 1008 29.77 837 24.72 -1.3 29.6 100 -1.4 29.6 -.846 -0.033
11:04 1008 29.77 837 24.72 -1.3 29.7 100 -1.3 29.6 -.789 -0.031
11:05 1008 29.77 837 24.72 -1.3 29.7 100 -1.3 29.7 -.766 -0.03
11:06 1008 29.77 837 24.72 -1.2 29.8 100 -1.3 29.7 -.727 -0.029
11:07 1008 29.77 837 24.72 -1.2 29.8 100 -1.3 29.7 -.732 -0.029
11:08 1008 29.77 837 24.72 -1.2 29.9 100 -1.2 29.8 -.721 -0.028
11:09 1008 29.77 837 24.72 -1.2 29.8 100 -1.2 29.8 -.698 -0.027
11:10 1008 29.77 837 24.72 -1.2 29.8 100 -1.2 29.8 -.653 -0.026
11:11 1008 29.77 837 24.72 -1.3 29.7 100 -1.3 29.6 -.738 -0.029
11:12 1008 29.77 837 24.72 -1.3 29.7 100 -1.3 29.6 -.761 -0.03
11:13 1008 29.77 837 24.72 -1.3 29.7 100 -1.3 29.6 -.783 -0.031
11:14 1008 29.77 837 24.72 -1.3 29.7 100 -1.3 29.6 -.755 -0.03
11:15 1008 29.77 837 24.72 -1.3 29.7 100 -1.3 29.6 -.755 -0.03
11:16 1008 29.77 837 24.72 -1.3 29.6 100 -1.4 29.5 -.784 -0.031
11:17 1008 29.77 837 24.72 -1.4 29.6 100 -1.4 29.5 -.75 -0.03
11:18 1008 29.77 837 24.72 -1.3 29.6 100 -1.4 29.5 -.784 -0.031
11:19 1008 29.77 837 24.72 -1.4 29.6 100 -1.4 29.5 -.789 -0.031
11:20 1008 29.77 837 24.72 -1.3 29.6 100 -1.4 29.5 -.767 -0.03
11:21 1008 29.77 837 24.72 -1.3 29.7 100 -1.3 29.6 -.772 -0.03
11:22 1008 29.77 837 24.72 -1.3 29.6 100 -1.4 29.5 -.767 -0.03
11:23 1008 29.77 837 24.72 -1.3 29.7 100 -1.4 29.6 -.755 -0.03
11:24 1008 29.77 837 24.72 -1.2 29.8 100 -1.3 29.7 -.744 -0.029
11:25 1008 29.77 837 24.72 -1.2 29.8 100 -1.3 29.7 -.71 -0.028
11:26 1008 29.77 837 24.72 -1.2 29.8 100 -1.3 29.7 -.75 -0.03
11:27 1008 29.77 837 24.72 -1.2 29.8 100 -1.3 29.7 -.71 -0.028
11:28 1008 29.77 837 24.72 -1.2 29.8 100 -1.3 29.7 -.733 -0.029
11:29 1008 29.77 837 24.72 -1.2 29.8 100 -1.3 29.7 -.693 -0.027
11:30 1008 29.77 837 24.72 -1.2 29.8 100 -1.3 29.7 -.704 -0.028
11:31 1008 29.77 837 24.72 -1.2 29.9 100 -1.2 29.8 -.693 -0.027
11:32 1008 29.77 837 24.72 -1.1 29.9 100 -1.2 29.8 -.648 -0.026
11:33 1008 29.77 837 24.72 -1.1 30 100 -1.2 29.9 -.631 -0.025
11:34 1008 29.77 837 24.72 -1.1 30 100 -1.1 29.9 -.58 -0.023
11:35 1008 29.77 837 24.72 -1.1 30.1 100 -1.1 30 -.563 -0.022
11:36 1008 29.77 837 24.72 -1 30.1 100 -1.1 30 -.54 -0.021
11:37 1008 29.77 837 24.72 -1.1 30.1 100 -1.1 30 -.518 -0.02
11:38 1008 29.77 837 24.72 -1.1 30 100 -1.1 30 -.54 -0.021
11:39 1008 29.77 837 24.72 -1.1 30 100 -1.1 30 -.558 -0.022
11:40 1008 29.77 837 24.72 -1.1 30 100 -1.2 29.9 -.558 -0.022
11:41 1008 29.77 837 24.72 -1.1 30 100 -1.2 29.9 -.541 -0.021
11:42 1008 29.77 837 24.72 -1.1 30 100 -1.2 29.9 -.553 -0.022
11:43 1008 29.77 837 24.72 -1.1 30 100 -1.2 29.9 -.49 -0.019
11:44 1008 29.77 837 24.72 -1.1 30 100 -1.2 29.9 -.491 -0.019
11:45 1008 29.77 837 24.72 -1.1 30 100 -1.1 29.9 -.497 -0.02
11:46 1008 29.77 837 24.72 -1.1 30 100 -1.2 29.9 -.491 -0.019
11:47 1008 29.77 837 24.72 -1.1 30.1 100 -1.1 30 -.464 -0.018
11:48 1008 29.77 837 24.72 -1.1 30 100 -1.1 29.9 -.504 -0.02
11:49 1008 29.77 837 24.72 -1.1 30.1 100 -1.1 29.9 -.47 -0.019
11:50 1008 29.77 837 24.72 -1.1 30 100 -1.1 29.9 -.47 -0.019
11:51 1008 29.77 837 24.72 -1.1 30 100 -1.2 29.9 -.533 -0.021
11:52 1008 29.77 837 24.72 -1.2 29.9 100 -1.2 29.8 -.584 -0.023
11:53 1008 29.77 837 24.72 -1.1 30 100 -1.2 29.9 -.527 -0.021
11:54 1008 29.77 837 24.72 -1.1 30 100 -1.2 29.9 -.556 -0.022
11:55 1008 29.77 837 24.72 -1.2 29.9 100 -1.2 29.8 -.573 -0.023
11:56 1008 29.77 837 24.72 -1.2 29.8 99 -1.3 29.7 -.601 -0.024
11:57 1008 29.77 837 24.72 -1.2 29.8 99 -1.3 29.7 -.675 -0.027
11:58 1008 29.77 837 24.72 -1.3 29.7 99 -1.4 29.6 -.732 -0.029
11:59 1008 29.77 837 24.72 -1.3 29.7 99 -1.4 29.5 -.777 -0.031
12:00 1008 29.77 837 24.72 -1.3 29.6 99 -1.4 29.4 -.851 -0.034
12:01 1008 29.77 837 24.72 -1.4 29.5 99 -1.5 29.3 -.902 -0.036
12:02 1008 29.77 837 24.72 -1.4 29.4 99 -1.5 29.3 -.925 -0.036
12:03 1008 29.77 837 24.72 -1.4 29.4 99 -1.5 29.2 -1.01 -0.04
12:04 1008 29.77 837 24.72 -1.5 29.3 99 -1.6 29.1 -1.038 -0.041
12:05 1008 29.77 837 24.72 -1.5 29.3 99 -1.6 29.1 -1.061 -0.042
12:06 1008 29.77 837 24.72 -1.5 29.3 99 -1.6 29.1 -1.084 -0.043
12:07 1008 29.77 837 24.72 -1.6 29.2 100 -1.7 29 -1.084 -0.043
12:08 1008 29.77 837 24.72 -1.6 29.2 100 -1.6 29 -1.118 -0.044
12:09 1008 29.77 838 24.75 -1.6 29.2 100 -1.6 29 -1.118 -0.044
12:10 1008 29.77 838 24.75 -1.6 29.1 100 -1.7 29 -1.124 -0.044
12:11 1008 29.77 838 24.75 -1.6 29.1 100 -1.7 29 -1.129 -0.044
12:12 1008 29.77 838 24.75 -1.6 29.1 100 -1.6 29 -1.146 -0.045
12:13 1008 29.77 838 24.75 -1.6 29.2 100 -1.6 29.1 -1.118 -0.044
12:14 1008 29.77 838 24.75 -1.6 29.2 100 -1.6 29 -1.118 -0.044
12:15 1008 29.77 838 24.75 -1.6 29.2 100 -1.6 29.1 -1.096 -0.043
12:16 1008 29.77 838 24.75 -1.6 29.2 100 -1.6 29.1 -1.141 -0.045
12:17 1008 29.77 838 24.75 -1.6 29.2 100 -1.7 29 -1.073 -0.042
12:18 1008 29.77 838 24.75 -1.6 29.2 100 -1.6 29 -1.101 -0.043
12:19 1008 29.77 838 24.75 -1.5 29.3 100 -1.6 29.2 -1.101 -0.043
12:20 1008 29.77 838 24.75 -1.6 29.2 100 -1.6 29 -1.147 -0.045
12:21 1008 29.77 838 24.75 -1.6 29.1 100 -1.6 29 -1.135 -0.045
12:22 1008 29.77 838 24.75 -1.6 29.1 100 -1.7 29 -1.124 -0.044
12:23 1009 29.8 838 24.75 -1.6 29.2 100 -1.7 29 -1.079 -0.042
12:24 1009 29.8 838 24.75 -1.6 29.2 100 -1.6 29 -1.113 -0.044
12:25 1009 29.8 838 24.75 -1.5 29.3 100 -1.6 29.1 -1.073 -0.042
12:26 1009 29.8 838 24.75 -1.5 29.2 100 -1.6 29.1 -1.028 -0.04
12:27 1009 29.8 838 24.75 -1.5 29.2 100 -1.6 29.1 -1.028 -0.04
12:28 1009 29.8 838 24.75 -1.5 29.3 100 -1.6 29.2 -.966 -0.038
12:29 1009 29.8 838 24.75 -1.5 29.3 100 -1.5 29.2 -.971 -0.038
12:30 1009 29.8 838 24.75 -1.4 29.4 100 -1.5 29.3 -.937 -0.037
12:31 1009 29.8 838 24.75 -1.4 29.4 100 -1.5 29.3 -.943 -0.037
12:32 1009 29.8 838 24.75 -1.4 29.4 99 -1.5 29.3 -.92 -0.036
12:33 1009 29.8 838 24.75 -1.4 29.4 99 -1.5 29.2 -.898 -0.035
12:34 1009 29.8 838 24.75 -1.4 29.4 99 -1.5 29.3 -.915 -0.036
12:35 1009 29.8 838 24.75 -1.4 29.5 100 -1.5 29.4 -.881 -0.035
12:36 1009 29.8 838 24.75 -1.4 29.6 99 -1.4 29.4 -.875 -0.034
12:37 1009 29.8 838 24.75 -1.4 29.5 99 -1.5 29.3 -.892 -0.035
12:38 1009 29.8 838 24.75 -1.4 29.5 99 -1.5 29.3 -.892 -0.035
12:39 1009 29.8 838 24.75 -1.4 29.5 99 -1.5 29.3 -.853 -0.034
12:40 1009 29.8 838 24.75 -1.4 29.5 99 -1.5 29.3 -.813 -0.032
12:41 1009 29.8 838 24.75 -1.4 29.4 99 -1.6 29.2 -.841 -0.033
12:42 1009 29.8 838 24.75 -1.4 29.4 99 -1.5 29.2 -.847 -0.033
12:43 1009 29.8 838 24.75 -1.4 29.4 99 -1.5 29.2 -.853 -0.034
12:44 1009 29.8 838 24.75 -1.4 29.4 99 -1.5 29.2 -.903 -0.036
12:45 1009 29.8 838 24.75 -1.4 29.5 99 -1.5 29.3 -.847 -0.033
12:46 1009 29.8 838 24.75 -1.4 29.5 99 -1.5 29.3 -.892 -0.035
12:47 1009 29.8 838 24.75 -1.4 29.5 99 -1.5 29.3 -.864 -0.034
12:48 1009 29.8 838 24.75 -1.4 29.5 99 -1.5 29.3 -.892 -0.035
12:49 1009 29.8 838 24.75 -1.3 29.6 99 -1.4 29.4 -.858 -0.034
12:50 1009 29.8 838 24.75 -1.3 29.6 99 -1.4 29.4 -.841 -0.033
12:51 1009 29.8 838 24.75 -1.3 29.6 99 -1.4 29.4 -.807 -0.032
12:52 1009 29.8 838 24.75 -1.3 29.6 99 -1.4 29.4 -.807 -0.032
12:53 1009 29.8 838 24.75 -1.4 29.5 99 -1.5 29.3 -.802 -0.032
12:54 1009 29.8 838 24.75 -1.3 29.6 99 -1.4 29.4 -.802 -0.032
12:55 1009 29.8 838 24.75 -1.3 29.6 99 -1.5 29.4 -.824 -0.032
12:56 1009 29.8 838 24.75 -1.3 29.6 99 -1.4 29.4 -.785 -0.031
12:57 1009 29.8 838 24.75 -1.3 29.7 99 -1.4 29.5 -.796 -0.031
12:58 1009 29.8 838 24.75 -1.3 29.6 99 -1.4 29.4 -.819 -0.032
12:59 1009 29.8 838 24.75 -1.4 29.6 99 -1.5 29.3 -.796 -0.031
13:00 1009 29.8 838 24.75 -1.4 29.5 99 -1.5 29.3 -.847 -0.033
13:01 1009 29.8 838 24.75 -1.4 29.5 99 -1.5 29.3 -.847 -0.033
13:02 1009 29.8 838 24.75 -1.4 29.5 99 -1.5 29.2 -.87 -0.034
13:03 1009 29.8 838 24.75 -1.4 29.5 99 -1.5 29.2 -.858 -0.034
13:04 1009 29.8 838 24.75 -1.4 29.4 99 -1.6 29.2 -.898 -0.035
13:05 1009 29.8 838 24.75 -1.4 29.4 99 -1.5 29.2 -.875 -0.034
13:06 1009 29.8 838 24.75 -1.4 29.5 99 -1.5 29.3 -.87 -0.034
13:07 1009 29.8 838 24.75 -1.4 29.5 99 -1.5 29.3 -.915 -0.036
13:08 1009 29.8 838 24.75 -1.4 29.5 99 -1.5 29.2 -.949 -0.037
13:09 1009 29.8 838 24.75 -1.5 29.3 99 -1.6 29.1 -.971 -0.038
13:10 1009 29.8 838 24.75 -1.5 29.3 99 -1.6 29.1 -.988 -0.039
13:11 1009 29.8 838 24.75 -1.5 29.4 99 -1.6 29.1 -.994 -0.039
13:12 1009 29.8 838 24.75 -1.5 29.4 99 -1.6 29.1 -1.005 -0.04
13:13 1009 29.8 838 24.75 -1.5 29.3 99 -1.6 29.1 -.977 -0.038
13:14 1009 29.8 838 24.75 -1.4 29.4 99 -1.6 29.2 -.966 -0.038
13:15 1009 29.8 838 24.75 -1.4 29.5 99 -1.5 29.3 -.932 -0.037
13:16 1009 29.8 838 24.75 -1.4 29.5 99 -1.5 29.3 -.887 -0.035
13:17 1009 29.8 838 24.75 -1.4 29.6 99 -1.5 29.4 -.915 -0.036
13:18 1009 29.8 838 24.75 -1.3 29.6 99 -1.5 29.4 -.875 -0.034
13:19 1009 29.8 838 24.75 -1.3 29.6 99 -1.4 29.4 -.824 -0.032
13:20 1009 29.8 838 24.75 -1.3 29.6 99 -1.5 29.4 -.847 -0.033
13:21 1009 29.8 838 24.75 -1.3 29.6 99 -1.5 29.4 -.785 -0.031
13:22 1009 29.8 838 24.75 -1.3 29.7 99 -1.4 29.4 -.79 -0.031
13:23 1009 29.8 838 24.75 -1.3 29.6 99 -1.5 29.3 -.836 -0.033
13:24 1009 29.8 838 24.75 -1.4 29.5 99 -1.5 29.2 -.881 -0.035
13:25 1009 29.8 838 24.75 -1.3 29.6 99 -1.5 29.3 -.881 -0.035
13:26 1009 29.8 838 24.75 -1.4 29.6 99 -1.5 29.3 -.858 -0.034
13:27 1009 29.8 838 24.75 -1.4 29.5 99 -1.5 29.2 -.858 -0.034
13:28 1009 29.8 838 24.75 -1.3 29.6 99 -1.5 29.4 -.841 -0.033
13:29 1009 29.8 839 24.78 -1.3 29.6 99 -1.5 29.3 -.847 -0.033
13:30 1009 29.8 839 24.78 -1.3 29.7 99 -1.4 29.4 -.79 -0.031
13:31 1009 29.8 839 24.78 -1.3 29.7 99 -1.4 29.4 -.819 -0.032
13:32 1009 29.8 839 24.78 -1.3 29.7 99 -1.5 29.3 -.841 -0.033
13:33 1009 29.8 839 24.78 -1.3 29.6 99 -1.5 29.3 -.813 -0.032
13:34 1009 29.8 839 24.78 -1.3 29.6 99 -1.5 29.3 -.864 -0.034
13:35 1009 29.8 839 24.78 -1.3 29.6 99 -1.5 29.3 -.824 -0.032
13:36 1009 29.8 839 24.78 -1.3 29.6 99 -1.5 29.4 -.813 -0.032
13:37 1009 29.8 839 24.78 -1.3 29.7 99 -1.4 29.4 -.807 -0.032
13:38 1009 29.8 839 24.78 -1.3 29.6 99 -1.5 29.4 -.802 -0.032
13:39 1009 29.8 839 24.78 -1.3 29.6 99 -1.5 29.3 -.813 -0.032
13:40 1009 29.8 839 24.78 -1.3 29.6 99 -1.5 29.4 -.79 -0.031
13:41 1009 29.8 839 24.78 -1.3 29.7 99 -1.4 29.5 -.802 -0.032
13:42 1009 29.8 839 24.78 -1.3 29.7 99 -1.4 29.5 -.768 -0.03
13:43 1009 29.8 839 24.78 -1.2 29.8 99 -1.4 29.5 -.768 -0.03
13:44 1009 29.8 839 24.78 -1.3 29.7 99 -1.4 29.5 -.79 -0.031
13:45 1009 29.8 839 24.78 -1.3 29.7 99 -1.4 29.5 -.768 -0.03
13:46 1010 29.83 839 24.78 -1.2 29.8 99 -1.4 29.5 -.768 -0.03
13:47 1010 29.83 839 24.78 -1.2 29.8 99 -1.4 29.5 -.796 -0.031
13:48 1010 29.83 839 24.78 -1.2 29.8 99 -1.4 29.5 -.785 -0.031
13:49 1010 29.83 839 24.78 -1.2 29.8 99 -1.4 29.5 -.762 -0.03
13:50 1010 29.83 839 24.78 -1.2 29.8 99 -1.4 29.5 -.751 -0.03
13:51 1010 29.83 839 24.78 -1.2 29.8 99 -1.4 29.4 -.785 -0.031
13:52 1010 29.83 839 24.78 -1.3 29.7 99 -1.5 29.4 -.819 -0.032
13:53 1010 29.83 839 24.78 -1.3 29.7 99 -1.5 29.3 -.768 -0.03
13:54 1010 29.83 839 24.78 -1.3 29.7 99 -1.4 29.4 -.79 -0.031
13:55 1010 29.83 839 24.78 -1.3 29.7 99 -1.4 29.5 -.745 -0.029
13:56 1010 29.83 839 24.78 -1.2 29.8 99 -1.4 29.4 -.739 -0.029
13:57 1010 29.83 839 24.78 -1.2 29.8 99 -1.4 29.5 -.739 -0.029
13:58 1010 29.83 839 24.78 -1.2 29.8 99 -1.4 29.5 -.734 -0.029
13:59 1010 29.83 839 24.78 -1.2 29.8 99 -1.4 29.5 -.79 -0.031
14:00 1010 29.83 839 24.78 -1.2 29.9 99 -1.3 29.6 -.751 -0.03
14:01 1010 29.83 839 24.78 -1.2 29.9 99 -1.3 29.6 -.671 -0.026
14:02 1010 29.83 839 24.78 -1.1 30 99 -1.3 29.7 -.666 -0.026
14:03 1010 29.83 839 24.78 -1.2 29.9 99 -1.3 29.7 -.66 -0.026
14:04 1010 29.83 839 24.78 -1.1 30 99 -1.3 29.7 -.62 -0.024
14:05 1010 29.83 839 24.78 -1.1 30.1 99 -1.2 29.8 -.62 -0.024
14:06 1010 29.83 839 24.78 -1.1 30.1 99 -1.3 29.7 -.598 -0.024
14:07 1010 29.83 839 24.78 -1.1 30.1 99 -1.3 29.7 -.598 -0.024
14:08 1010 29.83 839 24.78 -1.1 30.1 99 -1.2 29.8 -.603 -0.024
14:09 1010 29.83 839 24.78 -1.1 30.1 99 -1.3 29.7 -.564 -0.022
14:10 1010 29.83 839 24.78 -1.1 30.1 99 -1.2 29.8 -.496 -0.02
14:11 1010 29.83 839 24.78 -1 30.2 99 -1.2 29.8 -.53 -0.021
14:12 1010 29.83 839 24.78 -1 30.1 99 -1.2 29.9 -.502 -0.02
14:13 1010 29.83 839 24.78 -0.9 30.3 99 -1.1 30 -.462 -0.018
14:14 1010 29.83 839 24.78 -0.9 30.4 99 -1.1 30 -.456 -0.018
14:15 1010 29.83 839 24.78 -1 30.3 99 -1.1 29.9 -.468 -0.018
14:16 1010 29.83 839 24.78 -1 30.3 99 -1.2 29.9 -.462 -0.018
14:17 1010 29.83 839 24.78 -0.9 30.3 99 -1.1 29.9 -.462 -0.018
14:18 1010 29.83 839 24.78 -0.9 30.4 99 -1.1 30.1 -.411 -0.016
14:19 1010 29.83 839 24.78 -0.9 30.4 99 -1.1 30.1 -.428 -0.017
14:20 1010 29.83 839 24.78 -0.8 30.5 99 -1 30.2 -.354 -0.014
14:21 1010 29.83 839 24.78 -0.8 30.5 99 -1 30.2 -.349 -0.014
14:22 1010 29.83 839 24.78 -0.8 30.6 99 -1 30.3 -.326 -0.013
14:23 1010 29.83 839 24.78 -0.8 30.5 99 -1 30.2 -.32 -0.013
14:24 1010 29.83 839 24.78 -0.8 30.5 99 -1 30.2 -.349 -0.014
14:25 1010 29.83 839 24.78 -0.8 30.5 99 -1 30.2 -.332 -0.013
14:26 1010 29.83 839 24.78 -0.8 30.6 99 -1 30.2 -.332 -0.013
14:27 1010 29.83 839 24.78 -0.8 30.6 99 -1 30.3 -.315 -0.012
14:28 1010 29.83 839 24.78 -0.8 30.6 99 -0.9 30.3 -.303 -0.012
14:29 1010 29.83 839 24.78 -0.8 30.6 99 -1 30.3 -.315 -0.012
14:30 1010 29.83 839 24.78 -0.8 30.6 99 -1 30.3 -.269 -0.011
14:31 1010 29.83 839 24.78 -0.8 30.6 99 -1 30.3 -.326 -0.013
14:32 1010 29.83 839 24.78 -0.8 30.6 99 -1 30.3 -.326 -0.013
14:33 1010 29.83 839 24.78 -0.8 30.6 99 -0.9 30.3 -.252 -0.01
14:34 1010 29.83 839 24.78 -0.7 30.7 99 -0.9 30.4 -.252 -0.01
14:35 1010 29.83 839 24.78 -0.7 30.7 99 -0.9 30.4 -.269 -0.011
14:36 1010 29.83 839 24.78 -0.7 30.7 99 -0.9 30.4 -.236 -0.009
14:37 1010 29.83 839 24.78 -0.7 30.7 99 -0.9 30.3 -.236 -0.009
14:38 1010 29.83 839 24.78 -0.7 30.7 99 -0.9 30.4 -.292 -0.011
14:39 1010 29.83 839 24.78 -0.7 30.7 99 -0.9 30.4 -.252 -0.01
14:40 1010 29.83 839 24.78 -0.7 30.7 99 -0.9 30.4 -.241 -0.009
14:41 1010 29.83 839 24.78 -0.7 30.8 99 -0.9 30.5 -.23 -0.009
14:42 1010 29.83 839 24.78 -0.7 30.8 99 -0.9 30.4 -.213 -0.008
14:43 1010 29.83 839 24.78 -0.7 30.7 99 -0.9 30.4 -.224 -0.009
14:44 1010 29.83 839 24.78 -0.7 30.7 99 -0.9 30.4 -.236 -0.009
14:45 1010 29.83 839 24.78 -0.7 30.7 99 -0.9 30.4 -.202 -0.008
14:46 1010 29.83 839 24.78 -0.7 30.7 99 -0.9 30.4 -.213 -0.008
14:47 1010 29.83 839 24.78 -0.7 30.8 99 -0.9 30.4 -.173 -0.007
14:48 1010 29.83 839 24.78 -0.7 30.8 99 -0.9 30.4 -.151 -0.006
14:49 1010 29.83 839 24.78 -0.7 30.7 99 -0.9 30.4 -.134 -0.005
14:50 1010 29.83 839 24.78 -0.7 30.7 99 -0.9 30.4 -.135 -0.005
14:51 1010 29.83 839 24.78 -0.7 30.7 99 -0.9 30.3 -.163 -0.006
14:52 1010 29.83 839 24.78 -0.7 30.7 99 -0.9 30.4 -.17 -0.007
14:53 1010 29.83 839 24.78 -0.7 30.7 99 -0.9 30.3 -.153 -0.006
14:54 1010 29.83 839 24.78 -0.8 30.6 99 -1 30.3 -.147 -0.006
14:55 1010 29.83 839 24.78 -0.7 30.7 99 -0.9 30.3 -.148 -0.006
14:56 1010 29.83 839 24.78 -0.7 30.7 99 -0.9 30.4 -.131 -0.005
14:57 1010 29.83 839 24.78 -0.7 30.8 99 -0.9 30.5 -.114 -0.004
14:58 1010 29.83 839 24.78 -0.7 30.8 99 -0.8 30.5 -.075 -0.003
14:59 1010 29.83 839 24.78 -0.7 30.8 99 -0.8 30.5 -.075 -0.003
15:00 1010 29.83 839 24.78 -0.6 30.8 99 -0.8 30.6 -.087 -0.003
15:01 1010 29.83 839 24.78 -0.6 30.9 99 -0.8 30.6 -.059 -0.002
15:02 1010 29.83 839 24.78 -0.6 30.9 99 -0.8 30.5 -.104 -0.004
15:03 1010 29.83 839 24.78 -0.7 30.8 99 -0.9 30.4 -.065 -0.003
15:04 1010 29.83 839 24.78 -0.7 30.8 99 -0.9 30.5 -.082 -0.003
15:05 1010 29.83 839 24.78 -0.6 30.8 99 -0.8 30.5 -.076 -0.003
15:06 1010 29.83 839 24.78 -0.7 30.8 99 -0.9 30.4 -.105 -0.004
15:07 1010 29.83 839 24.78 -0.6 30.8 99 -0.8 30.5 -.139 -0.005
15:08 1010 29.83 839 24.78 -0.7 30.7 99 -0.9 30.4 -.15 -0.006
15:09 1010 29.83 839 24.78 -0.7 30.8 99 -0.9 30.5 -.19 -0.007
15:10 1010 29.83 839 24.78 -0.6 30.8 99 -0.8 30.5 -.151 -0.006
15:11 1010 29.83 839 24.78 -0.7 30.8 99 -0.8 30.5 -.168 -0.007
15:12 1010 29.83 839 24.78 -0.7 30.7 99 -0.9 30.4 -.196 -0.008
15:13 1010 29.83 839 24.78 -0.7 30.8 99 -0.8 30.5 -.185 -0.007
15:14 1010 29.83 839 24.78 -0.7 30.8 99 -0.8 30.5 -.162 -0.006
15:15 1010 29.83 839 24.78 -0.7 30.8 99 -0.8 30.5 -.151 -0.006
15:16 1010 29.83 839 24.78 -0.6 30.9 99 -0.8 30.6 -.111 -0.004
15:17 1010 29.83 839 24.78 -0.6 30.9 99 -0.7 30.7 -.111 -0.004
15:18 1010 29.83 839 24.78 -0.6 30.9 99 -0.8 30.6 -.128 -0.005
15:19 1010 29.83 839 24.78 -0.6 30.9 99 -0.8 30.6 -.157 -0.006
15:20 1010 29.83 839 24.78 -0.7 30.8 99 -0.8 30.5 -.185 -0.007
15:21 1010 29.83 839 24.78 -0.7 30.8 99 -0.8 30.5 -.225 -0.009
15:22 1010 29.83 839 24.78 -0.7 30.8 99 -0.9 30.4 -.242 -0.01
15:23 1010 29.83 839 24.78 -0.7 30.7 99 -0.9 30.5 -.236 -0.009
15:24 1010 29.83 839 24.78 -0.6 30.8 99 -0.8 30.6 -.242 -0.01
15:25 1010 29.83 839 24.78 -0.7 30.8 99 -0.8 30.5 -.283 -0.011
15:26 1010 29.83 839 24.78 -0.6 30.8 99 -0.8 30.6 -.232 -0.009
15:27 1010 29.83 839 24.78 -0.7 30.8 99 -0.8 30.5 -.266 -0.01
15:28 1010 29.83 839 24.78 -0.7 30.8 99 -0.8 30.5 -.311 -0.012
15:29 1010 29.83 839 24.78 -0.7 30.8 99 -0.9 30.4 -.317 -0.012
15:30 1010 29.83 839 24.78 -0.7 30.8 99 -0.9 30.5 -.323 -0.013
15:31 1010 29.83 839 24.78 -0.7 30.8 99 -0.8 30.5 -.295 -0.012
15:32 1010 29.83 839 24.78 -0.7 30.7 99 -0.8 30.5 -.284 -0.011
15:33 1010 29.83 839 24.78 -0.7 30.8 99 -0.8 30.6 -.25 -0.01
15:34 1010 29.83 839 24.78 -0.6 30.8 99 -0.8 30.6 -.223 -0.009
15:35 1010 29.83 839 24.78 -0.7 30.8 99 -0.9 30.5 -.296 -0.012
15:36 1010 29.83 839 24.78 -0.7 30.7 99 -0.9 30.4 -.297 -0.012
15:37 1010 29.83 839 24.78 -0.7 30.7 99 -0.9 30.4 -.297 -0.012
15:38 1010 29.83 839 24.78 -0.7 30.7 99 -0.9 30.5 -.297 -0.012
15:39 1010 29.83 839 24.78 -0.7 30.7 99 -0.9 30.4 -.336 -0.013
15:40 1010 29.83 839 24.78 -0.7 30.7 99 -0.9 30.4 -.353 -0.014
15:41 1010 29.83 839 24.78 -0.8 30.5 99 -1 30.2 -.426 -0.017
15:42 1010 29.83 839 24.78 -0.8 30.5 99 -1 30.2 -.484 -0.019
15:43 1010 29.83 839 24.78 -0.9 30.4 99 -1.1 30.1 -.489 -0.019
15:44 1010 29.83 839 24.78 -0.9 30.4 99 -1 30.2 -.501 -0.02
15:45 1010 29.83 839 24.78 -0.9 30.3 99 -1.1 30.1 -.517 -0.02
15:46 1010 29.83 839 24.78 -1 30.3 99 -1.1 30 -.562 -0.022
15:47 1010 29.83 839 24.78 -1 30.2 99 -1.2 29.9 -.579 -0.023
15:48 1010 29.83 839 24.78 -1 30.2 99 -1.2 29.9 -.591 -0.023
15:49 1010 29.83 839 24.78 -1.1 30.1 99 -1.2 29.8 -.637 -0.025
15:50 1010 29.83 839 24.78 -1.1 30.1 99 -1.2 29.8 -.654 -0.026
15:51 1010 29.83 839 24.78 -1 30.1 99 -1.2 29.9 -.647 -0.025
15:52 1010 29.83 839 24.78 -1.1 30 99 -1.2 29.8 -.591 -0.023
15:53 1010 29.83 839 24.78 -1.1 30.1 99 -1.2 29.8 -.613 -0.024
15:54 1010 29.83 839 24.78 -1 30.1 99 -1.1 29.9 -.613 -0.024
15:55 1010 29.83 839 24.78 -1 30.2 99 -1.1 30 -.573 -0.023
15:56 1010 29.83 839 24.78 -1 30.1 99 -1.2 29.9 -.624 -0.025
15:57 1010 29.83 839 24.78 -1 30.2 99 -1.2 29.9 -.619 -0.024
15:58 1010 29.83 839 24.78 -1 30.2 99 -1.2 29.9 -.574 -0.023
15:59 1010 29.83 839 24.78 -1 30.2 99 -1.1 29.9 -.591 -0.023
16:00 1010 29.83 839 24.78 -1 30.2 99 -1.1 30 -.607 -0.024
16:01 1010 29.83 839 24.78 -1 30.2 99 -1.1 29.9 -.601 -0.024
16:02 1010 29.83 839 24.78 -1 30.2 99 -1.1 30 -.55 -0.022
16:03 1010 29.83 840 24.81 -1 30.3 99 -1.1 30.1 -.522 -0.021
16:04 1010 29.83 840 24.81 -0.9 30.3 99 -1.1 30.1 -.51 -0.02
16:05 1010 29.83 840 24.81 -0.9 30.3 99 -1.1 30.1 -.522 -0.021
16:06 1010 29.83 840 24.81 -0.9 30.4 99 -1 30.2 -.506 -0.02
16:07 1010 29.83 840 24.81 -0.9 30.4 99 -1 30.2 -.506 -0.02
16:08 1010 29.83 840 24.81 -0.9 30.4 99 -1 30.2 -.505 -0.02
16:09 1010 29.83 839 24.78 -0.9 30.4 99 -1 30.2 -.482 -0.019
16:10 1010 29.83 840 24.81 -0.9 30.5 99 -0.9 30.3 -.426 -0.017
16:11 1010 29.83 840 24.81 -0.8 30.5 99 -0.9 30.3 -.386 -0.015
16:12 1010 29.83 840 24.81 -0.8 30.5 99 -0.9 30.4 -.403 -0.016
16:13 1010 29.83 840 24.81 -0.8 30.6 99 -0.9 30.4 -.34 -0.013
16:14 1010 29.83 840 24.81 -0.7 30.7 99 -0.8 30.5 -.335 -0.013
16:15 1010 29.83 840 24.81 -0.7 30.7 99 -0.8 30.5 -.319 -0.013
16:16 1010 29.83 840 24.81 -0.7 30.7 99 -0.8 30.5 -.285 -0.011
16:17 1010 29.83 840 24.81 -0.7 30.8 99 -0.8 30.6 -.296 -0.012
16:18 1010 29.83 840 24.81 -0.6 30.8 99 -0.8 30.6 -.239 -0.009
16:19 1010 29.83 840 24.81 -0.7 30.8 99 -0.8 30.6 -.279 -0.011
16:20 1010 29.83 840 24.81 -0.7 30.8 99 -0.8 30.6 -.222 -0.009
16:21 1010 29.83 840 24.81 -0.6 30.8 99 -0.8 30.6 -.25 -0.01
16:22 1010 29.83 840 24.81 -0.7 30.8 99 -0.8 30.6 -.244 -0.01
16:23 1010 29.83 840 24.81 -0.6 30.8 99 -0.8 30.6 -.199 -0.008
16:24 1010 29.83 840 24.81 -0.6 30.9 99 -0.7 30.7 -.176 -0.007
16:25 1010 29.83 840 24.81 -0.6 31 99 -0.7 30.7 -.153 -0.006
16:26 1010 29.83 840 24.81 -0.6 31 99 -0.7 30.8 -.125 -0.005
16:27 1010 29.83 840 24.81 -0.6 31 99 -0.7 30.8 -.108 -0.004
16:28 1010 29.83 840 24.81 -0.6 31 99 -0.7 30.7 -.13 -0.005
16:29 1010 29.83 840 24.81 -0.6 30.9 99 -0.7 30.7 -.096 -0.004
16:30 1010 29.83 840 24.81 -0.6 31 99 -0.7 30.8 -.147 -0.006
16:31 1010 29.83 840 24.81 -0.6 31 99 -0.7 30.8 -.102 -0.004
16:32 1010 29.83 840 24.81 -0.5 31 99 -0.7 30.8 -.096 -0.004
16:33 1010 29.83 840 24.81 -0.5 31 99 -0.7 30.8 -.107 -0.004
16:34 1010 29.83 840 24.81 -0.5 31.1 99 -0.6 30.8 -.079 -0.003
16:35 1010 29.83 840 24.81 -0.5 31.1 99 -0.6 30.8 -.073 -0.003
16:36 1010 29.83 840 24.81 -0.5 31.1 99 -0.6 30.9 -.079 -0.003
16:37 1010 29.83 840 24.81 -0.5 31.1 99 -0.6 30.9 -.028 -0.001
16:38 1010 29.83 840 24.81 -0.5 31.1 99 -0.6 30.9 -.035 -0.001
16:39 1010 29.83 840 24.81 -0.5 31.1 99 -0.6 30.9 -.023 -0.001
16:40 1010 29.83 840 24.81 -0.5 31.1 99 -0.6 30.9 -.035 -0.001
16:41 1010 29.83 840 24.81 -0.5 31.2 99 -0.6 31 .01 0
16:42 1010 29.83 840 24.81 -0.4 31.2 99 -0.5 31 -.013 -0.001
16:43 1010 29.83 840 24.81 -0.5 31.2 99 -0.6 31 .06 0.002
16:44 1010 29.83 840 24.81 -0.5 31.2 99 -0.6 30.9 .02 0.001
16:45 1010 29.83 840 24.81 -0.5 31.1 99 -0.6 30.9 -.025 -0.001
16:46 1010 29.83 840 24.81 -0.4 31.2 99 -0.6 31 .032 0.001
16:47 1010 29.83 840 24.81 -0.5 31.2 99 -0.6 30.9 .055 0.002
16:48 1010 29.83 840 24.81 -0.4 31.2 99 -0.5 31 .055 0.002
16:49 1010 29.83 840 24.81 -0.4 31.2 99 -0.5 31 -.008 -0
16:50 1010 29.83 840 24.81 -0.4 31.2 99 -0.5 31 .009 0
16:51 1010 29.83 840 24.81 -0.4 31.2 99 -0.6 31 -.014 -0.001
16:52 1010 29.83 840 24.81 -0.4 31.3 99 -0.5 31.1 -.014 -0.001
16:53 1010 29.83 840 24.81 -0.4 31.3 99 -0.5 31.1 .036 0.001
16:54 1010 29.83 840 24.81 -0.4 31.3 99 -0.5 31.1 .019 0.001
16:55 1010 29.83 840 24.81 -0.4 31.3 99 -0.5 31.1 .059 0.002
16:56 1010 29.83 840 24.81 -0.4 31.3 99 -0.5 31.1 .059 0.002
16:57 1010 29.83 840 24.81 -0.4 31.3 99 -0.5 31.1 .098 0.004
16:58 1011 29.85 840 24.81 -0.4 31.2 99 -0.5 31.1 .087 0.003
16:59 1011 29.85 840 24.81 -0.4 31.3 99 -0.5 31.1 .092 0.004
17:00 1011 29.85 840 24.81 -0.4 31.3 99 -0.5 31.1 .086 0.003
17:01 1011 29.85 840 24.81 -0.4 31.3 99 -0.5 31.1 .086 0.003
17:02 1011 29.85 840 24.81 -0.4 31.3 99 -0.5 31.1 .092 0.004
17:03 1011 29.85 840 24.81 -0.4 31.3 99 -0.5 31.1 .114 0.004
17:04 1011 29.85 840 24.81 -0.4 31.3 99 -0.5 31.1 .109 0.004
17:05 1011 29.85 840 24.81 -0.4 31.3 99 -0.5 31.1 .103 0.004
17:06 1011 29.85 840 24.81 -0.4 31.3 99 -0.5 31.1 .114 0.004
17:07 1011 29.85 840 24.81 -0.4 31.3 99 -0.5 31.1 .125 0.005
17:08 1011 29.85 840 24.81 -0.4 31.3 99 -0.5 31.2 .103 0.004
17:09 1011 29.85 840 24.81 -0.4 31.3 99 -0.5 31.1 .086 0.003
17:10 1011 29.85 840 24.81 -0.4 31.3 99 -0.5 31.1 .052 0.002
17:11 1011 29.85 840 24.81 -0.4 31.3 99 -0.5 31.1 .046 0.002
17:12 1011 29.85 840 24.81 -0.4 31.3 99 -0.5 31.1 .08 0.003
17:13 1010 29.83 840 24.81 -0.4 31.3 99 -0.5 31.1 .023 0.001
17:14 1010 29.83 840 24.81 -0.4 31.3 99 -0.5 31.1 -.011 -0
17:15 1010 29.83 840 24.81 -0.4 31.3 99 -0.5 31.1 .006 0
17:16 1011 29.85 840 24.81 -0.4 31.3 99 -0.5 31.1 .012 0
17:17 1011 29.85 840 24.81 -0.4 31.3 99 -0.5 31.1 .006 0
17:18 1011 29.85 840 24.81 -0.4 31.3 99 -0.5 31.1 .012 0
17:19 1011 29.85 840 24.81 -0.4 31.2 99 -0.5 31.1 .012 0
17:20 1011 29.85 840 24.81 -0.5 31.2 99 -0.5 31 -.045 -0.002
17:21 1011 29.85 840 24.81 -0.5 31.2 99 -0.6 31 -.056 -0.002
17:22 1011 29.85 840 24.81 -0.5 31.2 99 -0.6 31 -.073 -0.003
17:23 1011 29.85 840 24.81 -0.5 31.1 99 -0.6 30.9 -.09 -0.004
17:24 1011 29.85 840 24.81 -0.5 31.1 99 -0.6 30.9 -.096 -0.004
17:25 1011 29.85 840 24.81 -0.5 31.1 99 -0.6 30.9 -.119 -0.005
17:26 1011 29.85 840 24.81 -0.5 31.1 99 -0.6 30.9 -.107 -0.004
17:27 1011 29.85 840 24.81 -0.5 31.2 99 -0.6 31 -.107 -0.004
17:28 1011 29.85 840 24.81 -0.5 31.2 99 -0.6 31 -.113 -0.004
17:29 1011 29.85 840 24.81 -0.5 31.2 99 -0.6 31 -.073 -0.003
17:30 1011 29.85 840 24.81 -0.4 31.2 99 -0.5 31 -.113 -0.004
17:31 1011 29.85 840 24.81 -0.5 31.2 99 -0.6 31 -.096 -0.004
17:32 1011 29.85 840 24.81 -0.5 31.2 99 -0.6 31 -.107 -0.004
17:33 1011 29.85 840 24.81 -0.5 31.1 99 -0.6 30.9 -.09 -0.004
17:34 1011 29.85 840 24.81 -0.5 31.1 99 -0.6 30.9 -.204 -0.008
17:35 1011 29.85 840 24.81 -0.5 31.1 99 -0.6 30.9 -.226 -0.009
17:36 1011 29.85 840 24.81 -0.5 31.1 99 -0.6 30.9 -.232 -0.009
17:37 1011 29.85 840 24.81 -0.5 31.1 99 -0.6 30.9 -.243 -0.01
17:38 1011 29.85 840 24.81 -0.5 31.1 99 -0.6 30.9 -.249 -0.01
17:39 1011 29.85 840 24.81 -0.5 31 99 -0.6 30.9 -.243 -0.01
17:40 1011 29.85 840 24.81 -0.5 31 99 -0.6 30.8 -.255 -0.01
17:41 1011 29.85 840 24.81 -0.5 31 99 -0.6 30.8 -.255 -0.01
17:42 1011 29.85 840 24.81 -0.5 31 99 -0.6 30.9 -.232 -0.009
17:43 1011 29.85 840 24.81 -0.5 31.1 99 -0.6 30.9 -.209 -0.008
17:44 1011 29.85 840 24.81 -0.5 31.1 99 -0.6 30.9 -.187 -0.007
17:45 1011 29.85 840 24.81 -0.5 31.1 99 -0.6 30.9 -.181 -0.007
17:46 1011 29.85 840 24.81 -0.5 31.1 99 -0.6 30.9 -.164 -0.006
17:47 1011 29.85 840 24.81 -0.5 31.1 99 -0.6 30.9 -.147 -0.006
17:48 1011 29.85 840 24.81 -0.5 31 99 -0.6 30.9 -.181 -0.007
17:49 1011 29.85 840 24.81 -0.6 31 99 -0.7 30.8 -.232 -0.009
17:50 1011 29.85 840 24.81 -0.6 31 99 -0.7 30.8 -.283 -0.011
17:51 1011 29.85 840 24.81 -0.6 31 99 -0.7 30.8 -.328 -0.013
17:52 1011 29.85 840 24.81 -0.6 30.9 99 -0.7 30.7 -.357 -0.014
17:53 1011 29.85 840 24.81 -0.6 30.9 99 -0.7 30.7 -.385 -0.015
17:54 1011 29.85 840 24.81 -0.7 30.8 99 -0.7 30.7 -.39 -0.015
17:55 1011 29.85 840 24.81 -0.6 30.9 99 -0.7 30.7 -.402 -0.016
17:56 1011 29.85 840 24.81 -0.7 30.8 99 -0.7 30.7 -.39 -0.015
17:57 1011 29.85 840 24.81 -0.6 30.9 99 -0.7 30.7 -.407 -0.016
17:58 1011 29.85 840 24.81 -0.6 30.9 99 -0.7 30.8 -.396 -0.016
17:59 1011 29.85 840 24.81 -0.6 30.9 99 -0.7 30.7 -.379 -0.015
18:00 1011 29.85 840 24.81 -0.6 30.9 99 -0.7 30.7 -.361 -0.014
18:01 1011 29.85 840 24.81 -0.6 30.8 99 -0.7 30.7 -.417 -0.016
18:02 1011 29.85 840 24.81 -0.7 30.8 99 -0.8 30.6 -.423 -0.017
18:03 1011 29.85 840 24.81 -0.7 30.8 99 -0.7 30.7 -.428 -0.017
18:04 1011 29.85 840 24.81 -0.7 30.8 99 -0.8 30.6 -.467 -0.018
18:05 1011 29.85 840 24.81 -0.7 30.8 99 -0.8 30.6 -.433 -0.017
18:06 1011 29.85 840 24.81 -0.7 30.8 99 -0.7 30.7 -.433 -0.017
18:07 1011 29.85 840 24.81 -0.7 30.8 99 -0.8 30.6 -.421 -0.017
18:08 1011 29.85 840 24.81 -0.7 30.8 99 -0.8 30.6 -.416 -0.016
18:09 1011 29.85 840 24.81 -0.7 30.8 99 -0.8 30.6 -.404 -0.016
18:10 1011 29.85 840 24.81 -0.7 30.8 99 -0.8 30.6 -.404 -0.016
18:11 1011 29.85 840 24.81 -0.7 30.7 99 -0.8 30.6 -.437 -0.017
18:12 1011 29.85 840 24.81 -0.7 30.7 99 -0.8 30.6 -.426 -0.017
18:13 1011 29.85 840 24.81 -0.7 30.7 99 -0.8 30.5 -.431 -0.017
18:14 1011 29.85 840 24.81 -0.7 30.7 99 -0.8 30.5 -.459 -0.018
18:15 1011 29.85 840 24.81 -0.7 30.7 99 -0.8 30.5 -.442 -0.017
18:16 1011 29.85 840 24.81 -0.8 30.6 99 -0.9 30.4 -.419 -0.016
18:17 1011 29.85 840 24.81 -0.7 30.7 99 -0.8 30.5 -.408 -0.016
18:18 1011 29.85 840 24.81 -0.7 30.8 99 -0.8 30.6 -.397 -0.016
18:19 1011 29.85 840 24.81 -0.7 30.8 99 -0.8 30.6 -.38 -0.015
18:20 1011 29.85 840 24.81 -0.7 30.7 99 -0.8 30.6 -.363 -0.014
18:21 1011 29.85 840 24.81 -0.7 30.7 99 -0.8 30.6 -.396 -0.016
18:22 1011 29.85 840 24.81 -0.7 30.7 99 -0.8 30.5 -.408 -0.016
18:23 1011 29.85 840 24.81 -0.7 30.7 99 -0.8 30.5 -.418 -0.016
18:24 1011 29.85 840 24.81 -0.7 30.7 99 -0.8 30.5 -.406 -0.016
18:25 1011 29.85 840 24.81 -0.8 30.6 99 -0.9 30.5 -.423 -0.017
18:26 1011 29.85 840 24.81 -0.7 30.7 99 -0.8 30.5 -.4 -0.016
18:27 1011 29.85 840 24.81 -0.7 30.7 99 -0.8 30.5 -.422 -0.017
18:28 1011 29.85 840 24.81 -0.8 30.6 99 -0.9 30.5 -.433 -0.017
18:29 1011 29.85 840 24.81 -0.7 30.7 99 -0.8 30.5 -.433 -0.017
18:30 1011 29.85 840 24.81 -0.7 30.7 99 -0.8 30.5 -.438 -0.017
18:31 1011 29.85 840 24.81 -0.7 30.7 99 -0.8 30.5 -.455 -0.018
18:32 1011 29.85 840 24.81 -0.7 30.7 99 -0.8 30.5 -.454 -0.018
18:33 1011 29.85 840 24.81 -0.7 30.7 99 -0.8 30.5 -.443 -0.017
18:34 1011 29.85 840 24.81 -0.7 30.7 99 -0.8 30.5 -.454 -0.018
18:35 1011 29.85 840 24.81 -0.8 30.6 99 -0.9 30.5 -.437 -0.017
18:36 1011 29.85 840 24.81 -0.8 30.6 99 -0.9 30.5 -.431 -0.017
18:37 1011 29.85 840 24.81 -0.7 30.7 99 -0.8 30.5 -.442 -0.017
18:38 1011 29.85 840 24.81 -0.7 30.7 99 -0.8 30.5 -.447 -0.018
18:39 1011 29.85 840 24.81 -0.7 30.7 100 -0.8 30.5 -.424 -0.017
18:40 1011 29.85 840 24.81 -0.8 30.6 99 -0.9 30.4 -.407 -0.016
18:41 1011 29.85 840 24.81 -0.8 30.5 99 -0.9 30.3 -.475 -0.019
18:42 1011 29.85 840 24.81 -0.8 30.5 100 -0.9 30.3 -.515 -0.02
18:43 1011 29.85 840 24.81 -0.9 30.5 100 -0.9 30.3 -.52 -0.02
18:44 1011 29.85 840 24.81 -0.9 30.4 99 -1 30.2 -.56 -0.022
18:45 1011 29.85 840 24.81 -0.9 30.4 100 -1 30.2 -.571 -0.022
18:46 1011 29.85 840 24.81 -0.9 30.4 100 -1 30.3 -.565 -0.022
18:47 1011 29.85 840 24.81 -0.9 30.3 100 -1 30.2 -.593 -0.023
18:48 1011 29.85 840 24.81 -0.9 30.3 100 -1 30.2 -.605 -0.024
18:49 1011 29.85 840 24.81 -0.9 30.4 100 -1 30.2 -.616 -0.024
18:50 1011 29.85 840 24.81 -1 30.3 100 -1 30.2 -.61 -0.024
18:51 1011 29.85 840 24.81 -1 30.3 100 -1 30.2 -.616 -0.024
18:52 1011 29.85 840 24.81 -0.9 30.3 100 -1 30.2 -.61 -0.024
18:53 1011 29.85 840 24.81 -0.9 30.3 99 -1 30.2 -.61 -0.024
18:54 1011 29.85 840 24.81 -0.9 30.4 100 -1 30.2 -.57 -0.022
18:55 1011 29.85 840 24.81 -0.9 30.4 100 -1 30.3 -.531 -0.021
18:56 1011 29.85 840 24.81 -0.9 30.4 99 -1 30.2 -.502 -0.02
18:57 1011 29.85 840 24.81 -0.9 30.4 100 -1 30.3 -.508 -0.02
18:58 1011 29.85 840 24.81 -0.9 30.4 100 -0.9 30.3 -.429 -0.017
18:59 1011 29.85 840 24.81 -0.9 30.4 100 -0.9 30.3 -.417 -0.016
19:00 1011 29.85 840 24.81 -0.8 30.5 100 -0.9 30.4 -.434 -0.017
19:01 1011 29.85 840 24.81 -0.8 30.5 100 -0.9 30.4 -.406 -0.016
19:02 1011 29.85 840 24.81 -0.8 30.5 100 -0.9 30.4 -.383 -0.015
19:03 1011 29.85 840 24.81 -0.8 30.6 100 -0.8 30.5 -.332 -0.013
19:04 1011 29.85 840 24.81 -0.8 30.6 100 -0.8 30.5 -.304 -0.012
19:05 1011 29.85 840 24.81 -0.7 30.7 100 -0.8 30.6 -.264 -0.01
19:06 1011 29.85 840 24.81 -0.6 30.9 100 -0.7 30.8 -.106 -0.004
19:07 1011 29.85 840 24.81 -0.5 31 100 -0.6 31 -.038 -0.001
19:08 1011 29.85 840 24.81 -0.5 31.2 100 -0.5 31.1 .076 0.003
19:09 1011 29.85 840 24.81 -0.4 31.3 100 -0.4 31.2 .144 0.006
19:10 1011 29.85 840 24.81 -0.3 31.4 100 -0.4 31.4 .206 0.008
19:11 1011 29.85 840 24.81 -0.3 31.4 100 -0.3 31.4 .246 0.01
19:12 1011 29.85 840 24.81 -0.2 31.6 100 -0.2 31.6 .296 0.012
19:13 1011 29.85 840 24.81 -0.2 31.7 100 -0.2 31.7 .342 0.013
19:14 1011 29.85 840 24.81 -0.1 31.9 100 -0.1 31.8 .483 0.019
19:15 1011 29.85 840 24.81 -0 32 100 -0.1 31.9 .506 0.02
19:16 1011 29.85 840 24.81 0 32 99 -0.1 31.9 .591 0.023
19:17 1011 29.85 840 24.81 0 32.1 99 -0.1 31.8 .676 0.027
19:18 1011 29.85 840 24.81 0.1 32.2 98 -0.1 31.8 .665 0.026
19:19 1011 29.85 840 24.81 0.1 32.2 98 -0.2 31.7 .721 0.028
19:20 1011 29.85 840 24.81 0.2 32.3 97 -0.2 31.6 .744 0.029
19:21 1011 29.85 840 24.81 0.3 32.5 97 -0.2 31.7 .8 0.031
19:22 1011 29.85 840 24.81 0.3 32.6 97 -0.2 31.7 .812 0.032
19:23 1011 29.85 840 24.81 0.3 32.6 96 -0.2 31.6 .863 0.034
19:24 1011 29.85 840 24.81 0.3 32.6 96 -0.3 31.5 .829 0.033
19:25 1011 29.85 840 24.81 0.1 32.2 96 -0.4 31.3 .619 0.024
19:26 1011 29.85 840 24.81 -0 31.9 97 -0.5 31.1 .449 0.018
19:27 1011 29.85 840 24.81 -0.1 31.8 97 -0.5 31.1 .348 0.014
19:28 1011 29.85 840 24.81 -0.2 31.6 98 -0.5 31 .234 0.009
19:29 1011 29.85 840 24.81 -0.2 31.6 98 -0.5 31 .195 0.008
19:30 1011 29.85 840 24.81 -0.3 31.5 98 -0.5 31.1 .155 0.006
19:31 1011 29.85 840 24.81 -0.3 31.5 98 -0.5 31 .127 0.005
19:32 1011 29.85 840 24.81 -0.3 31.4 98 -0.6 31 .115 0.005
19:33 1011 29.85 840 24.81 -0.4 31.4 99 -0.6 31 .11 0.004
19:34 1011 29.85 840 24.81 -0.3 31.4 99 -0.5 31.1 .104 0.004
19:35 1011 29.85 840 24.81 -0.4 31.4 99 -0.6 31 .121 0.005
19:36 1011 29.85 840 24.81 -0.4 31.3 99 -0.6 31 .087 0.003
19:37 1011 29.85 840 24.81 -0.3 31.4 99 -0.5 31.1 .121 0.005
19:38 1011 29.85 840 24.81 -0.3 31.4 99 -0.5 31 .132 0.005
19:39 1011 29.85 840 24.81 -0.3 31.4 99 -0.5 31 .104 0.004
19:40 1011 29.85 840 24.81 -0.3 31.4 99 -0.5 31.1 .093 0.004
19:41 1011 29.85 840 24.81 -0.4 31.4 99 -0.5 31 .098 0.004
19:42 1011 29.85 840 24.81 -0.3 31.4 99 -0.5 31 .07 0.003
19:43 1011 29.85 840 24.81 -0.4 31.4 99 -0.5 31 .104 0.004
19:44 1011 29.85 840 24.81 -0.4 31.3 99 -0.6 31 .042 0.002
19:45 1011 29.85 840 24.81 -0.3 31.5 98 -0.5 31.1 .149 0.006
19:46 1011 29.85 840 24.81 0.1 32.2 98 -0.3 31.5 .41 0.016
19:47 1011 29.85 840 24.81 0.4 32.7 95 -0.3 31.5 .687 0.027
19:48 1011 29.85 840 24.81 0.6 33.1 93 -0.5 31.2 .88 0.035
19:49 1011 29.85 840 24.81 0.9 33.6 90 -0.6 31 1.112 0.044
19:50 1011 29.85 840 24.81 1.1 33.9 89 -0.6 30.9 1.27 0.05
19:51 1011 29.85 840 24.81 1.2 34.1 87 -0.7 30.8 1.389 0.055
19:52 1011 29.85 840 24.81 1.3 34.3 86 -0.8 30.6 1.474 0.058
19:53 1011 29.85 840 24.81 1.4 34.5 86 -0.7 30.7 1.559 0.061
19:54 1011 29.85 840 24.81 1.4 34.5 85 -0.8 30.6 1.684 0.066
19:55 1011 29.85 840 24.81 1.4 34.6 85 -0.8 30.6 1.78 0.07
19:56 1011 29.85 840 24.81 1.5 34.7 85 -0.9 30.5 1.859 0.073
19:57 1011 29.85 840 24.81 1.5 34.8 84 -0.8 30.5 1.955 0.077
19:58 1011 29.85 840 24.81 1.5 34.8 85 -0.7 30.7 1.978 0.078
19:59 1011 29.85 840 24.81 1.5 34.8 84 -0.8 30.5 1.955 0.077
20:00 1011 29.85 840 24.81 1.6 34.9 83 -0.9 30.4 2.091 0.082
20:01 1011 29.85 840 24.81 1.7 35.1 83 -1 30.3 2.176 0.086
20:02 1011 29.85 840 24.81 1.8 35.2 83 -0.8 30.5 2.295 0.09
20:03 1011 29.85 840 24.81 1.8 35.2 82 -0.9 30.3 2.318 0.091
20:04 1011 29.85 840 24.81 1.9 35.3 81 -1 30.2 2.391 0.094
20:05 1011 29.85 840 24.81 1.9 35.5 81 -1 30.2 2.465 0.097
20:06 1011 29.85 840 24.81 2 35.6 81 -0.9 30.4 2.544 0.1
20:07 1011 29.85 840 24.81 2 35.6 81 -1 30.3 2.533 0.1
20:08 1011 29.85 840 24.81 2.1 35.7 81 -0.8 30.6 2.567 0.101
20:09 1011 29.85 840 24.81 2 35.6 81 -0.9 30.3 2.51 0.099
20:10 1011 29.85 840 24.81 2 35.6 81 -1 30.2 2.561 0.101
20:11 1011 29.85 840 24.81 2 35.7 80 -1 30.1 2.629 0.104
20:12 1011 29.85 840 24.81 2.1 35.8 79 -1.1 30 2.669 0.105
20:13 1011 29.85 840 24.81 2.2 35.9 78 -1.3 29.7 2.697 0.106
20:14 1011 29.85 840 24.81 2.3 36.1 77 -1.3 29.7 2.81 0.111
20:15 1011 29.85 840 24.81 2.3 36.2 78 -1.2 29.9 2.85 0.112
20:16 1011 29.85 840 24.81 2.4 36.2 76 -1.4 29.5 2.833 0.112
20:17 1011 29.85 840 24.81 2.4 36.3 75 -1.5 29.3 2.906 0.114
20:18 1011 29.85 840 24.81 2.5 36.5 76 -1.3 29.6 2.929 0.115
20:19 1011 29.85 840 24.81 2.6 36.6 75 -1.5 29.3 2.94 0.116
20:20 1011 29.85 840 24.81 2.6 36.7 74 -1.5 29.3 3.014 0.119
20:21 1011 29.85 840 24.81 2.6 36.6 74 -1.7 29 3.031 0.119
20:22 1011 29.85 840 24.81 2.6 36.6 75 -1.5 29.3 2.974 0.117
20:23 1011 29.85 840 24.81 2.5 36.4 73 -1.8 28.8 2.952 0.116
20:24 1011 29.85 840 24.81 2.5 36.6 73 -1.8 28.8 2.991 0.118
20:25 1011 29.85 840 24.81 2.5 36.5 73 -1.8 28.8 3.003 0.118
20:26 1011 29.85 840 24.81 2.5 36.5 75 -1.5 29.4 2.957 0.116
20:27 1011 29.85 840 24.81 2.4 36.3 74 -1.7 28.9 2.884 0.114
20:28 1011 29.85 840 24.81 2.4 36.4 73 -1.9 28.6 2.906 0.114
20:29 1011 29.85 840 24.81 2.5 36.4 73 -1.9 28.5 2.895 0.114
20:30 1011 29.85 840 24.81 2.5 36.5 74 -1.7 28.9 2.963 0.117
20:31 1011 29.85 840 24.81 2.4 36.4 74 -1.8 28.8 2.906 0.114
20:32 1011 29.85 840 24.81 2.5 36.4 73 -1.9 28.7 2.867 0.113
20:33 1011 29.85 840 24.81 2.5 36.4 74 -1.8 28.8 2.878 0.113
20:34 1011 29.85 840 24.81 2.4 36.4 74 -1.7 29 2.799 0.11
20:35 1011 29.85 840 24.81 2.4 36.3 73 -2 28.5 2.816 0.111
20:36 1011 29.85 840 24.81 2.5 36.4 73 -1.9 28.6 2.805 0.11
20:37 1011 29.85 840 24.81 2.4 36.3 73 -1.9 28.6 2.776 0.109
20:38 1011 29.85 840 24.81 2.4 36.4 72 -2.1 28.3 2.748 0.108
20:39 1011 29.85 840 24.81 2.5 36.5 73 -1.9 28.5 2.805 0.11
20:40 1011 29.85 840 24.81 2.5 36.6 72 -1.9 28.6 2.839 0.112
20:41 1011 29.85 840 24.81 2.5 36.5 72 -2.1 28.2 2.872 0.113
20:42 1011 29.85 840 24.81 2.5 36.6 71 -2.2 28 2.895 0.114
20:43 1011 29.85 840 24.81 2.5 36.5 71 -2.3 27.9 2.856 0.112
20:44 1011 29.85 840 24.81 2.6 36.7 69 -2.5 27.6 2.918 0.115
20:45 1011 29.85 840 24.81 2.7 36.8 70 -2.3 27.9 3.003 0.118
20:46 1011 29.85 840 24.81 2.6 36.7 68 -2.8 27 2.94 0.116
20:47 1011 29.85 840 24.81 2.7 36.9 68 -2.5 27.5 3.054 0.12
20:48 1011 29.85 840 24.81 2.8 37 68 -2.5 27.5 3.048 0.12
20:49 1011 29.85 840 24.81 2.7 36.9 69 -2.4 27.8 3.059 0.12
20:50 1011 29.85 841 24.83 2.7 36.8 68 -2.6 27.4 3.003 0.118
20:51 1011 29.85 841 24.83 2.6 36.8 68 -2.6 27.4 2.997 0.118
20:52 1011 29.85 841 24.83 2.7 36.8 70 -2.3 27.8 3.003 0.118
20:53 1011 29.85 841 24.83 2.7 36.8 69 -2.5 27.4 3.031 0.119
20:54 1011 29.85 841 24.83 2.6 36.7 70 -2.4 27.8 3.003 0.118
20:55 1011 29.85 841 24.83 2.6 36.7 68 -2.7 27.1 2.929 0.115
20:56 1011 29.85 841 24.83 2.6 36.8 70 -2.3 27.8 2.974 0.117
20:57 1011 29.85 841 24.83 2.6 36.7 69 -2.6 27.3 2.969 0.117
20:58 1012 29.88 841 24.83 2.6 36.7 69 -2.5 27.4 2.957 0.116
20:59 1012 29.88 841 24.83 2.6 36.6 69 -2.6 27.4 2.957 0.116
21:00 1012 29.88 841 24.83 2.6 36.6 70 -2.3 27.8 2.957 0.116
21:01 1012 29.88 841 24.83 2.5 36.5 70 -2.5 27.5 2.918 0.115
21:02 1012 29.88 841 24.83 2.5 36.5 70 -2.4 27.6 2.872 0.113
21:03 1012 29.88 841 24.83 2.4 36.3 69 -2.7 27.1 2.822 0.111
21:04 1012 29.88 841 24.83 2.5 36.5 68 -2.7 27.1 2.872 0.113
21:05 1012 29.88 841 24.83 2.5 36.5 70 -2.5 27.5 2.894 0.114
21:06 1012 29.88 841 24.83 2.5 36.4 71 -2.2 28 2.826 0.111
21:07 1012 29.88 841 24.83 2.3 36.2 69 -2.8 27 2.746 0.108
21:08 1012 29.88 841 24.83 2.4 36.3 69 -2.8 26.9 2.769 0.109
21:09 1012 29.88 841 24.83 2.4 36.3 69 -2.6 27.2 2.752 0.108
21:10 1012 29.88 841 24.83 2.3 36.2 70 -2.6 27.3 2.724 0.107
21:11 1012 29.88 841 24.83 2.3 36.2 69 -2.7 27.1 2.719 0.107
21:12 1012 29.88 841 24.83 2.4 36.2 70 -2.5 27.5 2.707 0.107
21:13 1012 29.88 841 24.83 2.3 36.1 70 -2.7 27.2 2.668 0.105
21:14 1012 29.88 841 24.83 2.3 36.1 68 -3 26.6 2.645 0.104
21:15 1012 29.88 841 24.83 2.3 36.2 67 -3.1 26.5 2.685 0.106
21:16 1012 29.88 841 24.83 2.4 36.3 69 -2.8 27 2.73 0.107
21:17 1012 29.88 841 24.83 2.3 36.2 69 -2.8 26.9 2.719 0.107
21:18 1012 29.88 841 24.83 2.3 36.2 69 -2.9 26.8 2.73 0.107
21:19 1012 29.88 841 24.83 2.3 36.2 67 -3.3 26.1 2.736 0.108
21:20 1012 29.88 841 24.83 2.3 36.2 67 -3.1 26.3 2.742 0.108
21:21 1012 29.88 841 24.83 2.3 36.2 67 -3.1 26.4 2.697 0.106
21:22 1012 29.88 841 24.83 2.4 36.2 67 -3.1 26.4 2.764 0.109
21:23 1012 29.88 841 24.83 2.3 36.2 67 -3.1 26.4 2.714 0.107
21:24 1012 29.88 841 24.83 2.3 36.2 68 -2.9 26.7 2.731 0.108
21:25 1012 29.88 841 24.83 2.3 36.1 68 -3 26.7 2.668 0.105
21:26 1012 29.88 841 24.83 2.3 36.1 68 -3 26.7 2.663 0.105
21:27 1012 29.88 841 24.83 2.2 36 69 -2.9 26.7 2.646 0.104
21:28 1012 29.88 841 24.83 2.3 36.1 67 -3.2 26.2 2.685 0.106
21:29 1012 29.88 841 24.83 2.3 36.2 68 -3 26.5 2.718 0.107
21:30 1012 29.88 841 24.83 2.3 36.2 66 -3.4 25.9 2.741 0.108
21:31 1012 29.88 841 24.83 2.4 36.3 67 -3.2 26.3 2.854 0.112
21:32 1012 29.88 841 24.83 2.4 36.3 70 -2.6 27.3 2.809 0.111
21:33 1012 29.88 841 24.83 2.3 36.1 69 -2.8 27 2.662 0.105
21:34 1012 29.88 841 24.83 2.2 36 68 -3 26.5 2.651 0.104
21:35 1012 29.88 841 24.83 2.2 36 70 -2.6 27.3 2.566 0.101
21:36 1012 29.88 841 24.83 2.1 35.8 70 -2.8 27 2.532 0.1
21:37 1012 29.88 841 24.83 2.1 35.8 70 -2.7 27.1 2.521 0.099
21:38 1012 29.88 841 24.83 2.1 35.8 69 -3 26.6 2.526 0.099
21:39 1012 29.88 841 24.83 2.2 35.9 70 -2.8 27 2.589 0.102
21:40 1012 29.88 841 24.83 2.2 35.9 70 -2.8 27 2.566 0.101
21:41 1012 29.88 841 24.83 2.2 35.9 70 -2.7 27.1 2.577 0.101
21:42 1012 29.88 841 24.83 2.2 35.9 70 -2.8 26.9 2.526 0.099
21:43 1012 29.88 841 24.83 2.1 35.8 71 -2.6 27.3 2.537 0.1
21:44 1012 29.88 841 24.83 2.2 35.9 69 -2.9 26.8 2.582 0.102
21:45 1012 29.88 841 24.83 2.2 36 70 -2.8 27 2.61 0.103
21:46 1012 29.88 841 24.83 2.2 36 70 -2.7 27.1 2.622 0.103
21:47 1012 29.88 841 24.83 2.2 35.9 71 -2.6 27.3 2.588 0.102
21:48 1012 29.88 841 24.83 2.1 35.9 71 -2.6 27.2 2.548 0.1
21:49 1012 29.88 841 24.83 2.1 35.8 71 -2.6 27.2 2.541 0.1
21:50 1012 29.88 841 24.83 2.1 35.8 72 -2.5 27.6 2.513 0.099
21:51 1012 29.88 841 24.83 2.1 35.8 71 -2.6 27.3 2.496 0.098
21:52 1012 29.88 841 24.83 2.1 35.8 70 -2.7 27.1 2.497 0.098
21:53 1012 29.88 841 24.83 2.1 35.8 71 -2.5 27.5 2.508 0.099
21:54 1012 29.88 841 24.83 2.1 35.7 73 -2.3 27.9 2.497 0.098
21:55 1012 29.88 841 24.83 2 35.6 72 -2.5 27.5 2.424 0.095
21:56 1012 29.88 841 24.83 2 35.6 72 -2.4 27.6 2.457 0.097
21:57 1012 29.88 841 24.83 2.1 35.7 72 -2.6 27.4 2.463 0.097
21:58 1012 29.88 841 24.83 2 35.7 70 -2.8 27 2.439 0.096
21:59 1012 29.88 841 24.83 2.1 35.7 72 -2.4 27.7 2.456 0.097
22:00 1012 29.88 841 24.83 2 35.7 71 -2.6 27.3 2.456 0.097
22:01 1012 29.88 841 24.83 2 35.6 72 -2.5 27.5 2.439 0.096
22:02 1012 29.88 841 24.83 2 35.6 71 -2.7 27.2 2.433 0.096
22:03 1012 29.88 841 24.83 2.1 35.8 71 -2.6 27.3 2.49 0.098
22:04 1012 29.88 841 24.83 2 35.7 72 -2.6 27.4 2.473 0.097
22:05 1012 29.88 841 24.83 2.1 35.8 72 -2.4 27.7 2.479 0.098
22:06 1012 29.88 841 24.83 2.1 35.7 72 -2.5 27.5 2.496 0.098
22:07 1012 29.88 841 24.83 2 35.7 72 -2.6 27.4 2.495 0.098
22:08 1012 29.88 841 24.83 2 35.6 71 -2.8 27 2.45 0.096
22:09 1012 29.88 841 24.83 2.1 35.7 71 -2.6 27.4 2.489 0.098
22:10 1012 29.88 841 24.83 2.1 35.7 71 -2.6 27.3 2.46 0.097
22:11 1012 29.88 841 24.83 2.1 35.8 71 -2.5 27.4 2.523 0.099
22:12 1012 29.88 841 24.83 2.1 35.8 71 -2.7 27.2 2.523 0.099
22:13 1012 29.88 841 24.83 2.2 35.9 69 -2.9 26.7 2.608 0.103
22:14 1012 29.88 841 24.83 2.2 36 70 -2.6 27.2 2.631 0.104
22:15 1012 29.88 841 24.83 2.2 36 70 -2.6 27.3 2.608 0.103
22:16 1012 29.88 841 24.83 2.1 35.8 71 -2.5 27.4 2.579 0.102
22:17 1012 29.88 841 24.83 2.1 35.8 71 -2.6 27.3 2.528 0.1
22:18 1012 29.88 841 24.83 2.1 35.8 71 -2.6 27.3 2.535 0.1
22:19 1012 29.88 841 24.83 2.1 35.8 71 -2.6 27.2 2.524 0.099
22:20 1012 29.88 841 24.83 2.1 35.8 70 -2.8 27 2.501 0.098
22:21 1012 29.88 841 24.83 2.2 35.9 70 -2.7 27.1 2.558 0.101
22:22 1012 29.88 841 24.83 2.1 35.9 70 -2.7 27.1 2.553 0.101
22:23 1012 29.88 841 24.83 2.2 35.9 70 -2.8 26.9 2.519 0.099
22:24 1012 29.88 841 24.83 2.2 36 71 -2.6 27.4 2.547 0.1
22:25 1012 29.88 841 24.83 2.2 35.9 69 -2.9 26.9 2.587 0.102
22:26 1012 29.88 841 24.83 2.2 35.9 70 -2.8 27 2.565 0.101
22:27 1012 29.88 841 24.83 2.2 35.9 69 -2.9 26.8 2.592 0.102
22:28 1012 29.88 841 24.83 2.2 36 68 -3.1 26.4 2.631 0.104
22:29 1012 29.88 841 24.83 2.3 36.1 68 -2.9 26.7 2.665 0.105
22:30 1012 29.88 841 24.83 2.3 36.1 70 -2.6 27.3 2.706 0.107
22:31 1012 29.88 841 24.83 2.2 36 68 -3.2 26.3 2.621 0.103
22:32 1012 29.88 841 24.83 2.3 36.2 66 -3.3 26.1 2.728 0.107
22:33 1012 29.88 841 24.83 2.5 36.5 65 -3.4 25.9 2.899 0.114
22:34 1012 29.88 841 24.83 2.6 36.6 65 -3.4 25.9 2.967 0.117
22:35 1012 29.88 841 24.83 2.7 36.8 63 -3.7 25.3 3.035 0.119
22:36 1012 29.88 841 24.83 2.8 37.1 62 -3.8 25.2 3.199 0.126
22:37 1012 29.88 841 24.83 3 37.4 63 -3.4 25.8 3.369 0.133
22:38 1012 29.88 841 24.83 2.9 37.3 64 -3.2 26.3 3.403 0.134
22:39 1012 29.88 841 24.83 2.8 37.1 66 -3 26.7 3.228 0.127
22:40 1012 29.88 841 24.83 2.7 36.9 63 -3.6 25.6 3.103 0.122
22:41 1012 29.88 841 24.83 2.9 37.2 60 -4 24.8 3.262 0.128
22:42 1012 29.88 841 24.83 3.1 37.6 61 -3.6 25.5 3.487 0.137
22:43 1012 29.88 841 24.83 3.1 37.5 63 -3.4 25.9 3.527 0.139
22:44 1012 29.88 841 24.83 3 37.4 62 -3.5 25.7 3.442 0.136
22:45 1012 29.88 841 24.83 3 37.3 61 -3.8 25.2 3.407 0.134
22:46 1012 29.88 841 24.83 3 37.3 63 -3.5 25.8 3.418 0.135
22:47 1012 29.88 841 24.83 2.9 37.3 63 -3.4 26 3.395 0.134
22:48 1012 29.88 841 24.83 2.8 37.1 65 -3.2 26.3 3.242 0.128
22:49 1012 29.88 841 24.83 2.7 36.9 65 -3.3 26.1 3.134 0.123
22:50 1012 29.88 841 24.83 2.6 36.8 63 -3.6 25.5 3.061 0.121
22:51 1012 29.88 841 24.83 2.6 36.7 65 -3.3 26 3.011 0.119
22:52 1012 29.88 841 24.83 2.5 36.5 67 -3 26.7 2.965 0.117
22:53 1012 29.88 841 24.83 2.4 36.3 67 -3 26.6 2.886 0.114
22:54 1012 29.88 841 24.83 2.4 36.3 65 -3.4 25.8 2.836 0.112
22:55 1012 29.88 841 24.83 2.5 36.6 64 -3.6 25.6 2.943 0.116
22:56 1012 29.88 841 24.83 2.6 36.7 65 -3.3 26 3.05 0.12
22:57 1012 29.88 841 24.83 2.7 36.8 64 -3.5 25.7 3.061 0.121
22:58 1012 29.88 841 24.83 2.8 37 64 -3.3 26.1 3.135 0.123
22:59 1012 29.88 841 24.83 2.8 37 63 -3.5 25.6 3.197 0.126
23:00 1012 29.88 841 24.83 3 37.5 60 -4 24.7 3.446 0.136
23:01 1012 29.88 841 24.83 3.2 37.7 59 -4 24.7 3.587 0.141
23:02 1012 29.88 841 24.83 3.2 37.7 60 -3.8 25.2 3.615 0.142
23:03 1012 29.88 841 24.83 3.1 37.6 63 -3.3 26 3.564 0.14
23:04 1012 29.88 841 24.83 2.9 37.3 63 -3.4 25.8 3.4 0.134
23:05 1012 29.88 841 24.83 2.8 37.1 66 -2.9 26.7 3.269 0.129
23:06 1012 29.88 841 24.83 2.7 36.8 66 -3.1 26.5 3.088 0.122
23:07 1012 29.88 841 24.83 2.6 36.6 66 -3.1 26.3 2.997 0.118
23:08 1012 29.88 841 24.83 2.7 36.8 65 -3.4 26 3.048 0.12
23:09 1012 29.88 841 24.83 2.7 36.9 64 -3.4 25.8 3.15 0.124
23:10 1012 29.88 841 24.83 2.7 36.9 66 -3 26.6 3.161 0.124
23:11 1012 29.88 841 24.83 2.6 36.7 66 -3 26.5 3.083 0.121
23:12 1012 29.88 841 24.83 2.7 36.8 65 -3.2 26.2 3.077 0.121
23:13 1012 29.88 841 24.83 2.7 36.8 64 -3.4 25.9 3.157 0.124
23:14 1012 29.88 841 24.83 2.7 36.9 66 -3 26.5 3.139 0.124
23:15 1012 29.88 841 24.83 2.7 36.8 66 -3.1 26.4 3.082 0.121
23:16 1012 29.88 841 24.83 2.6 36.7 66 -3.1 26.3 3.082 0.121
23:17 1012 29.88 841 24.83 2.7 36.8 64 -3.4 25.9 3.133 0.123
23:18 1012 29.88 841 24.83 2.8 37 65 -3.2 26.3 3.161 0.124
23:19 1012 29.88 841 24.83 2.8 37 63 -3.5 25.6 3.19 0.126
23:20 1012 29.88 841 24.83 2.9 37.2 63 -3.4 25.9 3.291 0.13
23:21 1012 29.88 841 24.83 2.9 37.3 63 -3.5 25.7 3.331 0.131
23:22 1012 29.88 841 24.83 3 37.4 64 -3.2 26.2 3.376 0.133
23:23 1012 29.88 841 24.83 2.9 37.2 65 -3 26.6 3.33 0.131
23:24 1012 29.88 841 24.83 2.8 37 65 -3.1 26.4 3.251 0.128
23:25 1012 29.88 841 24.83 2.8 37 66 -3 26.7 3.2 0.126
23:26 1012 29.88 842 24.86 2.7 36.8 67 -2.8 26.9 3.143 0.124
23:27 1012 29.88 842 24.86 2.6 36.7 65 -3.2 26.2 3.047 0.12
23:28 1012 29.88 841 24.83 2.7 36.8 66 -3 26.6 3.059 0.12
23:29 1012 29.88 841 24.83 2.7 36.8 66 -3.1 26.4 3.07 0.121
23:30 1012 29.88 841 24.83 2.7 36.9 65 -3.3 26.1 3.132 0.123
23:31 1012 29.88 841 24.83 2.7 36.9 68 -2.7 27.2 3.126 0.123
23:32 1012 29.88 841 24.83 2.6 36.7 66 -3.1 26.4 3.053 0.12
23:33 1012 29.88 841 24.83 2.7 36.9 65 -3.3 26.1 3.12 0.123
23:34 1012 29.88 841 24.83 2.9 37.3 62 -3.7 25.3 3.319 0.131
23:35 1012 29.88 841 24.83 3 37.5 62 -3.4 25.8 3.46 0.136
23:36 1012 29.88 841 24.83 3 37.4 64 -3.1 26.5 3.443 0.136
23:37 1012 29.88 841 24.83 2.9 37.2 65 -2.9 26.7 3.324 0.131
23:38 1012 29.88 842 24.86 2.8 37 67 -2.7 27.2 3.217 0.127
23:39 1012 29.88 842 24.86 2.6 36.7 68 -2.7 27.2 3.064 0.121
23:40 1012 29.88 841 24.83 2.5 36.6 67 -3 26.5 2.984 0.117
23:41 1012 29.88 841 24.83 2.7 36.8 64 -3.4 25.8 3.058 0.12
23:42 1012 29.88 841 24.83 2.8 37 66 -3 26.6 3.211 0.126
23:43 1012 29.88 841 24.83 2.8 37 66 -3 26.6 3.239 0.128
23:44 1012 29.88 841 24.83 2.9 37.1 64 -3.3 26 3.239 0.128
23:45 1012 29.88 842 24.86 2.9 37.1 65 -3.2 26.3 3.262 0.128
23:46 1012 29.88 841 24.83 2.8 37.1 64 -3.3 26.1 3.256 0.128
23:47 1012 29.88 841 24.83 2.9 37.3 63 -3.4 25.9 3.341 0.132
23:48 1012 29.88 841 24.83 3 37.5 64 -3.1 26.4 3.431 0.135
23:49 1012 29.88 841 24.83 2.9 37.3 65 -3 26.7 3.375 0.133
23:50 1012 29.88 841 24.83 2.8 37.1 66 -2.9 26.8 3.256 0.128
23:51 1012 29.88 841 24.83 2.8 37 67 -2.7 27.2 3.194 0.126
23:52 1012 29.88 841 24.83 2.7 36.8 66 -3 26.6 3.114 0.123
23:53 1012 29.88 841 24.83 2.6 36.7 66 -3.2 26.3 3.063 0.121
23:54 1012 29.88 841 24.83 2.7 36.8 66 -3 26.7 3.086 0.121
23:55 1012 29.88 841 24.83 2.6 36.7 67 -2.8 27 3.109 0.122
23:56 1012 29.88 841 24.83 2.7 36.8 65 -3.3 26.1 3.097 0.122
23:57 1012 29.88 841 24.83 2.7 36.9 66 -3 26.6 3.143 0.124
23:58 1012 29.88 841 24.83 2.7 36.8 67 -2.9 26.9 3.109 0.122
23:59 1012 29.88 841 24.83 2.6 36.6 66 -3.1 26.5 2.995 0.118
24:00 1012 29.88 841 24.83 2.6 36.6 67 -3 26.6 2.984 0.117